<?xml version="1.0" encoding="UTF-8" standalone="no" ?>
<gpx xmlns="http://www.topografix.com/GPX/1/1" xmlns:xsi="http://www.w3.org/2001/XMLSchema-instance" xsi:schemaLocation="http://www.topografix.com/GPX/1/1 http://www.topografix.com/GPX/1/1/gpx.xsd" version="1.1" creator="VisuGPX - https://www.visugpx.com">
  <metadata>
    <name>piste vtt sjdm</name>
    <desc><![CDATA[Repérage de la piste VTT de la forêt du Pays de Monts
Les tronçons balisés
vu le 07-04-2023 sjdm - fromentine
vu le 18-04-2023 sjdm - fontenelles 
vu le 18-06-2023 sjdm - fontenelles et delvallon
Vu le 30-06-2023 Piste inaugurée le 15 juin, mais la trace ne suit pas le balisage.
Relevage de la trace le 05/07/2023
Différence entre balisage et trace officielle à La Parée Jésus et à La Parée du Jonc. ]]></desc>
  </metadata>
  <trk>
    <name><![CDATA[Piste VTT en forêt]]></name>
    <desc><![CDATA[Inaugurée le 15 juin 2023
Trace officielle dispo sur OnPiste]]></desc>
    <extensions>
      <line xmlns="http://www.topografix.com/GPX/gpx_style/0/2">
        <color>00FF00</color>
        <width>7</width>
      </line>
    </extensions>
    <trkseg>
      <trkpt lat="46.88517" lon="-2.15245">
        <ele>4</ele>
        <time>2023-07-01T13:26:25+00:00</time>
      </trkpt>
      <trkpt lat="46.88517" lon="-2.15175">
        <ele>5</ele>
        <time>2023-07-01T13:26:26+00:00</time>
      </trkpt>
      <trkpt lat="46.88514" lon="-2.15152">
        <ele>5</ele>
        <time>2023-07-01T13:26:27+00:00</time>
      </trkpt>
      <trkpt lat="46.88523" lon="-2.15133">
        <ele>5</ele>
        <time>2023-07-01T13:26:28+00:00</time>
      </trkpt>
      <trkpt lat="46.88528" lon="-2.15033">
        <ele>6</ele>
        <time>2023-07-01T13:26:29+00:00</time>
      </trkpt>
      <trkpt lat="46.8852" lon="-2.15014">
        <ele>6</ele>
        <time>2023-07-01T13:26:30+00:00</time>
      </trkpt>
      <trkpt lat="46.88464" lon="-2.14946">
        <ele>8</ele>
        <time>2023-07-01T13:26:31+00:00</time>
      </trkpt>
      <trkpt lat="46.88444" lon="-2.14917">
        <ele>7</ele>
        <time>2023-07-01T13:26:32+00:00</time>
      </trkpt>
      <trkpt lat="46.88411" lon="-2.14842">
        <ele>7</ele>
        <time>2023-07-01T13:26:33+00:00</time>
      </trkpt>
      <trkpt lat="46.88393" lon="-2.14739">
        <ele>7</ele>
        <time>2023-07-01T13:26:34+00:00</time>
      </trkpt>
      <trkpt lat="46.8839" lon="-2.14642">
        <ele>6</ele>
        <time>2023-07-01T13:26:35+00:00</time>
      </trkpt>
      <trkpt lat="46.8838" lon="-2.14512">
        <ele>5</ele>
        <time>2023-07-01T13:26:36+00:00</time>
      </trkpt>
      <trkpt lat="46.8834" lon="-2.14269">
        <ele>6</ele>
        <time>2023-07-01T13:26:37+00:00</time>
      </trkpt>
      <trkpt lat="46.88292" lon="-2.13926">
        <ele>8</ele>
        <time>2023-07-01T13:26:38+00:00</time>
      </trkpt>
      <trkpt lat="46.88281" lon="-2.13814">
        <ele>7</ele>
        <time>2023-07-01T13:26:39+00:00</time>
      </trkpt>
      <trkpt lat="46.8827" lon="-2.13748">
        <ele>9</ele>
        <time>2023-07-01T13:26:40+00:00</time>
      </trkpt>
      <trkpt lat="46.88264" lon="-2.13737">
        <ele>9</ele>
        <time>2023-07-01T13:26:41+00:00</time>
      </trkpt>
      <trkpt lat="46.8824" lon="-2.1374">
        <ele>9</ele>
        <time>2023-07-01T13:26:42+00:00</time>
      </trkpt>
      <trkpt lat="46.88206" lon="-2.13752">
        <ele>9</ele>
        <time>2023-07-01T13:26:43+00:00</time>
      </trkpt>
      <trkpt lat="46.88181" lon="-2.13756">
        <ele>9</ele>
        <time>2023-07-01T13:26:44+00:00</time>
      </trkpt>
      <trkpt lat="46.88165" lon="-2.13728">
        <ele>10</ele>
        <time>2023-07-01T13:26:45+00:00</time>
      </trkpt>
      <trkpt lat="46.88152" lon="-2.13724">
        <ele>9</ele>
        <time>2023-07-01T13:26:46+00:00</time>
      </trkpt>
      <trkpt lat="46.88124" lon="-2.13733">
        <ele>9</ele>
        <time>2023-07-01T13:26:47+00:00</time>
      </trkpt>
      <trkpt lat="46.88102" lon="-2.137">
        <ele>9</ele>
        <time>2023-07-01T13:26:48+00:00</time>
      </trkpt>
      <trkpt lat="46.88072" lon="-2.13694">
        <ele>9</ele>
        <time>2023-07-01T13:26:49+00:00</time>
      </trkpt>
      <trkpt lat="46.88057" lon="-2.13682">
        <ele>9</ele>
        <time>2023-07-01T13:26:50+00:00</time>
      </trkpt>
      <trkpt lat="46.8803" lon="-2.13685">
        <ele>9</ele>
        <time>2023-07-01T13:26:51+00:00</time>
      </trkpt>
      <trkpt lat="46.87999" lon="-2.13672">
        <ele>9</ele>
        <time>2023-07-01T13:26:52+00:00</time>
      </trkpt>
      <trkpt lat="46.87976" lon="-2.13639">
        <ele>8</ele>
        <time>2023-07-01T13:26:53+00:00</time>
      </trkpt>
      <trkpt lat="46.87953" lon="-2.1362">
        <ele>8</ele>
        <time>2023-07-01T13:26:54+00:00</time>
      </trkpt>
      <trkpt lat="46.87927" lon="-2.13574">
        <ele>7</ele>
        <time>2023-07-01T13:26:55+00:00</time>
      </trkpt>
      <trkpt lat="46.8788" lon="-2.13516">
        <ele>6</ele>
        <time>2023-07-01T13:26:56+00:00</time>
      </trkpt>
      <trkpt lat="46.87871" lon="-2.13494">
        <ele>6</ele>
        <time>2023-07-01T13:26:57+00:00</time>
      </trkpt>
      <trkpt lat="46.87855" lon="-2.13356">
        <ele>8</ele>
        <time>2023-07-01T13:26:58+00:00</time>
      </trkpt>
      <trkpt lat="46.87844" lon="-2.13299">
        <ele>10</ele>
        <time>2023-07-01T13:26:59+00:00</time>
      </trkpt>
      <trkpt lat="46.87806" lon="-2.13188">
        <ele>12</ele>
        <time>2023-07-01T13:27:00+00:00</time>
      </trkpt>
      <trkpt lat="46.87769" lon="-2.13132">
        <ele>11</ele>
        <time>2023-07-01T13:27:01+00:00</time>
      </trkpt>
      <trkpt lat="46.8767" lon="-2.13049">
        <ele>8</ele>
        <time>2023-07-01T13:27:02+00:00</time>
      </trkpt>
      <trkpt lat="46.8766" lon="-2.13019">
        <ele>9</ele>
        <time>2023-07-01T13:27:03+00:00</time>
      </trkpt>
      <trkpt lat="46.87753" lon="-2.12805">
        <ele>13</ele>
        <time>2023-07-01T13:27:04+00:00</time>
      </trkpt>
      <trkpt lat="46.87821" lon="-2.12707">
        <ele>16</ele>
        <time>2023-07-01T13:27:05+00:00</time>
      </trkpt>
      <trkpt lat="46.87825" lon="-2.12695">
        <ele>17</ele>
        <time>2023-07-01T13:27:06+00:00</time>
      </trkpt>
      <trkpt lat="46.87806" lon="-2.12629">
        <ele>20</ele>
        <time>2023-07-01T13:27:07+00:00</time>
      </trkpt>
      <trkpt lat="46.87789" lon="-2.12616">
        <ele>21</ele>
        <time>2023-07-01T13:27:08+00:00</time>
      </trkpt>
      <trkpt lat="46.8776" lon="-2.12642">
        <ele>21</ele>
        <time>2023-07-01T13:27:09+00:00</time>
      </trkpt>
      <trkpt lat="46.87744" lon="-2.12646">
        <ele>21</ele>
        <time>2023-07-01T13:27:10+00:00</time>
      </trkpt>
      <trkpt lat="46.87733" lon="-2.1264">
        <ele>20</ele>
        <time>2023-07-01T13:27:11+00:00</time>
      </trkpt>
      <trkpt lat="46.87716" lon="-2.12594">
        <ele>21</ele>
        <time>2023-07-01T13:27:12+00:00</time>
      </trkpt>
      <trkpt lat="46.87702" lon="-2.12575">
        <ele>21</ele>
        <time>2023-07-01T13:27:13+00:00</time>
      </trkpt>
      <trkpt lat="46.87649" lon="-2.12528">
        <ele>21</ele>
        <time>2023-07-01T13:27:14+00:00</time>
      </trkpt>
      <trkpt lat="46.87629" lon="-2.12514">
        <ele>21</ele>
        <time>2023-07-01T13:27:15+00:00</time>
      </trkpt>
      <trkpt lat="46.87597" lon="-2.12481">
        <ele>21</ele>
        <time>2023-07-01T13:27:16+00:00</time>
      </trkpt>
      <trkpt lat="46.87578" lon="-2.12477">
        <ele>21</ele>
        <time>2023-07-01T13:27:17+00:00</time>
      </trkpt>
      <trkpt lat="46.87572" lon="-2.12473">
        <ele>20</ele>
        <time>2023-07-01T13:27:18+00:00</time>
      </trkpt>
      <trkpt lat="46.87554" lon="-2.12472">
        <ele>20</ele>
        <time>2023-07-01T13:27:19+00:00</time>
      </trkpt>
      <trkpt lat="46.87535" lon="-2.12498">
        <ele>20</ele>
        <time>2023-07-01T13:27:20+00:00</time>
      </trkpt>
      <trkpt lat="46.87527" lon="-2.12483">
        <ele>19</ele>
        <time>2023-07-01T13:27:21+00:00</time>
      </trkpt>
      <trkpt lat="46.87525" lon="-2.12465">
        <ele>18</ele>
        <time>2023-07-01T13:27:22+00:00</time>
      </trkpt>
      <trkpt lat="46.87519" lon="-2.12457">
        <ele>18</ele>
        <time>2023-07-01T13:27:23+00:00</time>
      </trkpt>
      <trkpt lat="46.87489" lon="-2.12449">
        <ele>17</ele>
        <time>2023-07-01T13:27:24+00:00</time>
      </trkpt>
      <trkpt lat="46.87479" lon="-2.1245">
        <ele>17</ele>
        <time>2023-07-01T13:27:25+00:00</time>
      </trkpt>
      <trkpt lat="46.87471" lon="-2.12454">
        <ele>17</ele>
        <time>2023-07-01T13:27:26+00:00</time>
      </trkpt>
      <trkpt lat="46.87452" lon="-2.12511">
        <ele>18</ele>
        <time>2023-07-01T13:27:27+00:00</time>
      </trkpt>
      <trkpt lat="46.87414" lon="-2.12566">
        <ele>18</ele>
        <time>2023-07-01T13:27:28+00:00</time>
      </trkpt>
      <trkpt lat="46.87393" lon="-2.12601">
        <ele>18</ele>
        <time>2023-07-01T13:27:29+00:00</time>
      </trkpt>
      <trkpt lat="46.87388" lon="-2.12633">
        <ele>17</ele>
        <time>2023-07-01T13:27:30+00:00</time>
      </trkpt>
      <trkpt lat="46.87389" lon="-2.12648">
        <ele>17</ele>
        <time>2023-07-01T13:27:31+00:00</time>
      </trkpt>
      <trkpt lat="46.87386" lon="-2.12657">
        <ele>16</ele>
        <time>2023-07-01T13:27:32+00:00</time>
      </trkpt>
      <trkpt lat="46.87376" lon="-2.12667">
        <ele>16</ele>
        <time>2023-07-01T13:27:33+00:00</time>
      </trkpt>
      <trkpt lat="46.87357" lon="-2.1267">
        <ele>17</ele>
        <time>2023-07-01T13:27:34+00:00</time>
      </trkpt>
      <trkpt lat="46.87342" lon="-2.12677">
        <ele>17</ele>
        <time>2023-07-01T13:27:35+00:00</time>
      </trkpt>
      <trkpt lat="46.87335" lon="-2.12693">
        <ele>16</ele>
        <time>2023-07-01T13:27:36+00:00</time>
      </trkpt>
      <trkpt lat="46.87317" lon="-2.12709">
        <ele>16</ele>
        <time>2023-07-01T13:27:37+00:00</time>
      </trkpt>
      <trkpt lat="46.87268" lon="-2.12703">
        <ele>18</ele>
        <time>2023-07-01T13:27:38+00:00</time>
      </trkpt>
      <trkpt lat="46.87257" lon="-2.12706">
        <ele>18</ele>
        <time>2023-07-01T13:27:39+00:00</time>
      </trkpt>
      <trkpt lat="46.87238" lon="-2.12692">
        <ele>18</ele>
        <time>2023-07-01T13:27:40+00:00</time>
      </trkpt>
      <trkpt lat="46.87227" lon="-2.12675">
        <ele>18</ele>
        <time>2023-07-01T13:27:41+00:00</time>
      </trkpt>
      <trkpt lat="46.87219" lon="-2.12669">
        <ele>19</ele>
        <time>2023-07-01T13:27:42+00:00</time>
      </trkpt>
      <trkpt lat="46.87178" lon="-2.1267">
        <ele>18</ele>
        <time>2023-07-01T13:27:43+00:00</time>
      </trkpt>
      <trkpt lat="46.87134" lon="-2.12643">
        <ele>17</ele>
        <time>2023-07-01T13:27:44+00:00</time>
      </trkpt>
      <trkpt lat="46.87113" lon="-2.12635">
        <ele>17</ele>
        <time>2023-07-01T13:27:45+00:00</time>
      </trkpt>
      <trkpt lat="46.87091" lon="-2.12614">
        <ele>16</ele>
        <time>2023-07-01T13:27:46+00:00</time>
      </trkpt>
      <trkpt lat="46.87075" lon="-2.12604">
        <ele>16</ele>
        <time>2023-07-01T13:27:47+00:00</time>
      </trkpt>
      <trkpt lat="46.87061" lon="-2.12588">
        <ele>15</ele>
        <time>2023-07-01T13:27:48+00:00</time>
      </trkpt>
      <trkpt lat="46.87047" lon="-2.12566">
        <ele>14</ele>
        <time>2023-07-01T13:27:49+00:00</time>
      </trkpt>
      <trkpt lat="46.87036" lon="-2.12557">
        <ele>14</ele>
        <time>2023-07-01T13:27:50+00:00</time>
      </trkpt>
      <trkpt lat="46.8702" lon="-2.12554">
        <ele>14</ele>
        <time>2023-07-01T13:27:51+00:00</time>
      </trkpt>
      <trkpt lat="46.86977" lon="-2.12596">
        <ele>17</ele>
        <time>2023-07-01T13:27:52+00:00</time>
      </trkpt>
      <trkpt lat="46.86948" lon="-2.12609">
        <ele>19</ele>
        <time>2023-07-01T13:27:53+00:00</time>
      </trkpt>
      <trkpt lat="46.86924" lon="-2.12599">
        <ele>19</ele>
        <time>2023-07-01T13:27:54+00:00</time>
      </trkpt>
      <trkpt lat="46.86917" lon="-2.12591">
        <ele>18</ele>
        <time>2023-07-01T13:27:55+00:00</time>
      </trkpt>
      <trkpt lat="46.86897" lon="-2.12557">
        <ele>16</ele>
        <time>2023-07-01T13:27:56+00:00</time>
      </trkpt>
      <trkpt lat="46.86888" lon="-2.12551">
        <ele>15</ele>
        <time>2023-07-01T13:27:57+00:00</time>
      </trkpt>
      <trkpt lat="46.86864" lon="-2.12569">
        <ele>16</ele>
        <time>2023-07-01T13:27:58+00:00</time>
      </trkpt>
      <trkpt lat="46.86818" lon="-2.12578">
        <ele>16</ele>
        <time>2023-07-01T13:27:59+00:00</time>
      </trkpt>
      <trkpt lat="46.86788" lon="-2.12572">
        <ele>16</ele>
        <time>2023-07-01T13:28:00+00:00</time>
      </trkpt>
      <trkpt lat="46.86705" lon="-2.12548">
        <ele>15</ele>
        <time>2023-07-01T13:28:01+00:00</time>
      </trkpt>
      <trkpt lat="46.86684" lon="-2.12544">
        <ele>15</ele>
        <time>2023-07-01T13:28:02+00:00</time>
      </trkpt>
      <trkpt lat="46.86661" lon="-2.1249">
        <ele>15</ele>
        <time>2023-07-01T13:28:03+00:00</time>
      </trkpt>
      <trkpt lat="46.86633" lon="-2.12465">
        <ele>14</ele>
        <time>2023-07-01T13:28:04+00:00</time>
      </trkpt>
      <trkpt lat="46.86606" lon="-2.1246">
        <ele>13</ele>
        <time>2023-07-01T13:28:05+00:00</time>
      </trkpt>
      <trkpt lat="46.86598" lon="-2.12462">
        <ele>13</ele>
        <time>2023-07-01T13:28:06+00:00</time>
      </trkpt>
      <trkpt lat="46.86584" lon="-2.12478">
        <ele>13</ele>
        <time>2023-07-01T13:28:07+00:00</time>
      </trkpt>
      <trkpt lat="46.86575" lon="-2.12498">
        <ele>14</ele>
        <time>2023-07-01T13:28:08+00:00</time>
      </trkpt>
      <trkpt lat="46.86556" lon="-2.1252">
        <ele>13</ele>
        <time>2023-07-01T13:28:09+00:00</time>
      </trkpt>
      <trkpt lat="46.86534" lon="-2.12524">
        <ele>12</ele>
        <time>2023-07-01T13:28:10+00:00</time>
      </trkpt>
      <trkpt lat="46.86496" lon="-2.12523">
        <ele>10</ele>
        <time>2023-07-01T13:28:11+00:00</time>
      </trkpt>
      <trkpt lat="46.86476" lon="-2.12516">
        <ele>10</ele>
        <time>2023-07-01T13:28:12+00:00</time>
      </trkpt>
      <trkpt lat="46.86465" lon="-2.12505">
        <ele>10</ele>
        <time>2023-07-01T13:28:13+00:00</time>
      </trkpt>
      <trkpt lat="46.86459" lon="-2.12495">
        <ele>10</ele>
        <time>2023-07-01T13:28:14+00:00</time>
      </trkpt>
      <trkpt lat="46.86423" lon="-2.12464">
        <ele>10</ele>
        <time>2023-07-01T13:28:15+00:00</time>
      </trkpt>
      <trkpt lat="46.86385" lon="-2.12416">
        <ele>11</ele>
        <time>2023-07-01T13:28:16+00:00</time>
      </trkpt>
      <trkpt lat="46.86335" lon="-2.12359">
        <ele>12</ele>
        <time>2023-07-01T13:28:17+00:00</time>
      </trkpt>
      <trkpt lat="46.86314" lon="-2.12348">
        <ele>12</ele>
        <time>2023-07-01T13:28:18+00:00</time>
      </trkpt>
      <trkpt lat="46.86308" lon="-2.12356">
        <ele>12</ele>
        <time>2023-07-01T13:28:19+00:00</time>
      </trkpt>
      <trkpt lat="46.86287" lon="-2.12298">
        <ele>12</ele>
        <time>2023-07-01T13:28:20+00:00</time>
      </trkpt>
      <trkpt lat="46.86274" lon="-2.12189">
        <ele>13</ele>
        <time>2023-07-01T13:28:21+00:00</time>
      </trkpt>
      <trkpt lat="46.86263" lon="-2.12193">
        <ele>13</ele>
        <time>2023-07-01T13:28:22+00:00</time>
      </trkpt>
      <trkpt lat="46.86232" lon="-2.12212">
        <ele>13</ele>
        <time>2023-07-01T13:28:23+00:00</time>
      </trkpt>
      <trkpt lat="46.86206" lon="-2.12218">
        <ele>13</ele>
        <time>2023-07-01T13:28:24+00:00</time>
      </trkpt>
      <trkpt lat="46.86185" lon="-2.12215">
        <ele>13</ele>
        <time>2023-07-01T13:28:25+00:00</time>
      </trkpt>
      <trkpt lat="46.86156" lon="-2.1222">
        <ele>13</ele>
        <time>2023-07-01T13:28:26+00:00</time>
      </trkpt>
      <trkpt lat="46.86122" lon="-2.12215">
        <ele>14</ele>
        <time>2023-07-01T13:28:27+00:00</time>
      </trkpt>
      <trkpt lat="46.86093" lon="-2.12217">
        <ele>15</ele>
        <time>2023-07-01T13:28:28+00:00</time>
      </trkpt>
      <trkpt lat="46.86077" lon="-2.12207">
        <ele>15</ele>
        <time>2023-07-01T13:28:29+00:00</time>
      </trkpt>
      <trkpt lat="46.8606" lon="-2.12183">
        <ele>15</ele>
        <time>2023-07-01T13:28:30+00:00</time>
      </trkpt>
      <trkpt lat="46.8604" lon="-2.1214">
        <ele>16</ele>
        <time>2023-07-01T13:28:31+00:00</time>
      </trkpt>
      <trkpt lat="46.86004" lon="-2.12088">
        <ele>17</ele>
        <time>2023-07-01T13:28:32+00:00</time>
      </trkpt>
      <trkpt lat="46.85974" lon="-2.12068">
        <ele>16</ele>
        <time>2023-07-01T13:28:33+00:00</time>
      </trkpt>
      <trkpt lat="46.85927" lon="-2.12004">
        <ele>14</ele>
        <time>2023-07-01T13:28:34+00:00</time>
      </trkpt>
      <trkpt lat="46.85882" lon="-2.11935">
        <ele>14</ele>
        <time>2023-07-01T13:28:35+00:00</time>
      </trkpt>
      <trkpt lat="46.85873" lon="-2.11938">
        <ele>13</ele>
        <time>2023-07-01T13:28:36+00:00</time>
      </trkpt>
      <trkpt lat="46.85863" lon="-2.11981">
        <ele>13</ele>
        <time>2023-07-01T13:28:37+00:00</time>
      </trkpt>
      <trkpt lat="46.85854" lon="-2.12037">
        <ele>13</ele>
        <time>2023-07-01T13:28:38+00:00</time>
      </trkpt>
      <trkpt lat="46.85847" lon="-2.12049">
        <ele>13</ele>
        <time>2023-07-01T13:28:39+00:00</time>
      </trkpt>
      <trkpt lat="46.85814" lon="-2.12057">
        <ele>13</ele>
        <time>2023-07-01T13:28:40+00:00</time>
      </trkpt>
      <trkpt lat="46.85802" lon="-2.12064">
        <ele>13</ele>
        <time>2023-07-01T13:28:41+00:00</time>
      </trkpt>
      <trkpt lat="46.85795" lon="-2.12075">
        <ele>13</ele>
        <time>2023-07-01T13:28:42+00:00</time>
      </trkpt>
      <trkpt lat="46.85791" lon="-2.12099">
        <ele>13</ele>
        <time>2023-07-01T13:28:43+00:00</time>
      </trkpt>
      <trkpt lat="46.85779" lon="-2.12123">
        <ele>13</ele>
        <time>2023-07-01T13:28:44+00:00</time>
      </trkpt>
      <trkpt lat="46.85765" lon="-2.12172">
        <ele>13</ele>
        <time>2023-07-01T13:28:45+00:00</time>
      </trkpt>
      <trkpt lat="46.85757" lon="-2.12235">
        <ele>14</ele>
        <time>2023-07-01T13:28:46+00:00</time>
      </trkpt>
      <trkpt lat="46.8575" lon="-2.12248">
        <ele>14</ele>
        <time>2023-07-01T13:28:47+00:00</time>
      </trkpt>
      <trkpt lat="46.85719" lon="-2.12282">
        <ele>14</ele>
        <time>2023-07-01T13:28:48+00:00</time>
      </trkpt>
      <trkpt lat="46.85714" lon="-2.12309">
        <ele>14</ele>
        <time>2023-07-01T13:28:49+00:00</time>
      </trkpt>
      <trkpt lat="46.85713" lon="-2.12407">
        <ele>13</ele>
        <time>2023-07-01T13:28:50+00:00</time>
      </trkpt>
      <trkpt lat="46.85696" lon="-2.12441">
        <ele>12</ele>
        <time>2023-07-01T13:28:51+00:00</time>
      </trkpt>
      <trkpt lat="46.85668" lon="-2.12436">
        <ele>12</ele>
        <time>2023-07-01T13:28:52+00:00</time>
      </trkpt>
      <trkpt lat="46.8564" lon="-2.12421">
        <ele>11</ele>
        <time>2023-07-01T13:28:53+00:00</time>
      </trkpt>
      <trkpt lat="46.85624" lon="-2.12402">
        <ele>11</ele>
        <time>2023-07-01T13:28:54+00:00</time>
      </trkpt>
      <trkpt lat="46.85603" lon="-2.12393">
        <ele>10</ele>
        <time>2023-07-01T13:28:55+00:00</time>
      </trkpt>
      <trkpt lat="46.85568" lon="-2.12407">
        <ele>10</ele>
        <time>2023-07-01T13:28:56+00:00</time>
      </trkpt>
      <trkpt lat="46.8553" lon="-2.12437">
        <ele>11</ele>
        <time>2023-07-01T13:28:57+00:00</time>
      </trkpt>
      <trkpt lat="46.85508" lon="-2.12468">
        <ele>13</ele>
        <time>2023-07-01T13:28:58+00:00</time>
      </trkpt>
      <trkpt lat="46.85504" lon="-2.12499">
        <ele>14</ele>
        <time>2023-07-01T13:28:59+00:00</time>
      </trkpt>
      <trkpt lat="46.8551" lon="-2.12539">
        <ele>15</ele>
        <time>2023-07-01T13:29:00+00:00</time>
      </trkpt>
      <trkpt lat="46.85524" lon="-2.12605">
        <ele>15</ele>
        <time>2023-07-01T13:29:01+00:00</time>
      </trkpt>
      <trkpt lat="46.85504" lon="-2.12622">
        <ele>15</ele>
        <time>2023-07-01T13:29:02+00:00</time>
      </trkpt>
      <trkpt lat="46.85476" lon="-2.1264">
        <ele>14</ele>
        <time>2023-07-01T13:29:03+00:00</time>
      </trkpt>
      <trkpt lat="46.85397" lon="-2.12665">
        <ele>15</ele>
        <time>2023-07-01T13:29:04+00:00</time>
      </trkpt>
      <trkpt lat="46.85376" lon="-2.12665">
        <ele>15</ele>
        <time>2023-07-01T13:29:05+00:00</time>
      </trkpt>
      <trkpt lat="46.85366" lon="-2.12676">
        <ele>15</ele>
        <time>2023-07-01T13:29:06+00:00</time>
      </trkpt>
      <trkpt lat="46.85366" lon="-2.12717">
        <ele>15</ele>
        <time>2023-07-01T13:29:07+00:00</time>
      </trkpt>
      <trkpt lat="46.85363" lon="-2.12745">
        <ele>15</ele>
        <time>2023-07-01T13:29:08+00:00</time>
      </trkpt>
      <trkpt lat="46.85347" lon="-2.12793">
        <ele>15</ele>
        <time>2023-07-01T13:29:09+00:00</time>
      </trkpt>
      <trkpt lat="46.85329" lon="-2.12883">
        <ele>14</ele>
        <time>2023-07-01T13:29:10+00:00</time>
      </trkpt>
      <trkpt lat="46.85289" lon="-2.12987">
        <ele>12</ele>
        <time>2023-07-01T13:29:11+00:00</time>
      </trkpt>
      <trkpt lat="46.85224" lon="-2.12949">
        <ele>14</ele>
        <time>2023-07-01T13:29:12+00:00</time>
      </trkpt>
      <trkpt lat="46.85201" lon="-2.12938">
        <ele>14</ele>
        <time>2023-07-01T13:29:13+00:00</time>
      </trkpt>
      <trkpt lat="46.85172" lon="-2.12908">
        <ele>15</ele>
        <time>2023-07-01T13:29:14+00:00</time>
      </trkpt>
      <trkpt lat="46.85144" lon="-2.12915">
        <ele>15</ele>
        <time>2023-07-01T13:29:15+00:00</time>
      </trkpt>
      <trkpt lat="46.85134" lon="-2.12933">
        <ele>14</ele>
        <time>2023-07-01T13:29:16+00:00</time>
      </trkpt>
      <trkpt lat="46.85121" lon="-2.12941">
        <ele>14</ele>
        <time>2023-07-01T13:29:17+00:00</time>
      </trkpt>
      <trkpt lat="46.85093" lon="-2.12951">
        <ele>14</ele>
        <time>2023-07-01T13:29:18+00:00</time>
      </trkpt>
      <trkpt lat="46.8506" lon="-2.12956">
        <ele>13</ele>
        <time>2023-07-01T13:29:19+00:00</time>
      </trkpt>
      <trkpt lat="46.85042" lon="-2.13005">
        <ele>11</ele>
        <time>2023-07-01T13:29:20+00:00</time>
      </trkpt>
      <trkpt lat="46.85057" lon="-2.13036">
        <ele>10</ele>
        <time>2023-07-01T13:29:21+00:00</time>
      </trkpt>
      <trkpt lat="46.85005" lon="-2.13115">
        <ele>10</ele>
        <time>2023-07-01T13:29:22+00:00</time>
      </trkpt>
      <trkpt lat="46.84992" lon="-2.13126">
        <ele>10</ele>
        <time>2023-07-01T13:29:23+00:00</time>
      </trkpt>
      <trkpt lat="46.84956" lon="-2.13127">
        <ele>10</ele>
        <time>2023-07-01T13:29:24+00:00</time>
      </trkpt>
      <trkpt lat="46.84937" lon="-2.13124">
        <ele>10</ele>
        <time>2023-07-01T13:29:25+00:00</time>
      </trkpt>
      <trkpt lat="46.84917" lon="-2.13154">
        <ele>9</ele>
        <time>2023-07-01T13:29:26+00:00</time>
      </trkpt>
      <trkpt lat="46.84898" lon="-2.13139">
        <ele>10</ele>
        <time>2023-07-01T13:29:27+00:00</time>
      </trkpt>
      <trkpt lat="46.8486" lon="-2.13122">
        <ele>11</ele>
        <time>2023-07-01T13:29:28+00:00</time>
      </trkpt>
      <trkpt lat="46.84823" lon="-2.13093">
        <ele>10</ele>
        <time>2023-07-01T13:29:29+00:00</time>
      </trkpt>
      <trkpt lat="46.84786" lon="-2.13117">
        <ele>11</ele>
        <time>2023-07-01T13:29:30+00:00</time>
      </trkpt>
      <trkpt lat="46.84757" lon="-2.13206">
        <ele>12</ele>
        <time>2023-07-01T13:29:31+00:00</time>
      </trkpt>
      <trkpt lat="46.84746" lon="-2.13329">
        <ele>11</ele>
        <time>2023-07-01T13:29:32+00:00</time>
      </trkpt>
      <trkpt lat="46.84755" lon="-2.13353">
        <ele>10</ele>
        <time>2023-07-01T13:29:33+00:00</time>
      </trkpt>
      <trkpt lat="46.84738" lon="-2.13377">
        <ele>10</ele>
        <time>2023-07-01T13:29:34+00:00</time>
      </trkpt>
      <trkpt lat="46.84722" lon="-2.13418">
        <ele>9</ele>
        <time>2023-07-01T13:29:35+00:00</time>
      </trkpt>
      <trkpt lat="46.84705" lon="-2.13421">
        <ele>10</ele>
        <time>2023-07-01T13:29:36+00:00</time>
      </trkpt>
      <trkpt lat="46.84674" lon="-2.13417">
        <ele>10</ele>
        <time>2023-07-01T13:29:37+00:00</time>
      </trkpt>
      <trkpt lat="46.84648" lon="-2.13431">
        <ele>10</ele>
        <time>2023-07-01T13:29:38+00:00</time>
      </trkpt>
      <trkpt lat="46.84643" lon="-2.13474">
        <ele>10</ele>
        <time>2023-07-01T13:29:39+00:00</time>
      </trkpt>
      <trkpt lat="46.84604" lon="-2.13469">
        <ele>10</ele>
        <time>2023-07-01T13:29:40+00:00</time>
      </trkpt>
      <trkpt lat="46.84457" lon="-2.13471">
        <ele>10</ele>
        <time>2023-07-01T13:29:41+00:00</time>
      </trkpt>
      <trkpt lat="46.84383" lon="-2.13482">
        <ele>11</ele>
        <time>2023-07-01T13:29:42+00:00</time>
      </trkpt>
      <trkpt lat="46.84371" lon="-2.1352">
        <ele>11</ele>
        <time>2023-07-01T13:29:43+00:00</time>
      </trkpt>
      <trkpt lat="46.84352" lon="-2.13533">
        <ele>11</ele>
        <time>2023-07-01T13:29:44+00:00</time>
      </trkpt>
      <trkpt lat="46.84335" lon="-2.1355">
        <ele>11</ele>
        <time>2023-07-01T13:29:45+00:00</time>
      </trkpt>
      <trkpt lat="46.84264" lon="-2.13586">
        <ele>9</ele>
        <time>2023-07-01T13:29:46+00:00</time>
      </trkpt>
      <trkpt lat="46.84214" lon="-2.13589">
        <ele>9</ele>
        <time>2023-07-01T13:29:47+00:00</time>
      </trkpt>
      <trkpt lat="46.84161" lon="-2.13602">
        <ele>9</ele>
        <time>2023-07-01T13:29:48+00:00</time>
      </trkpt>
      <trkpt lat="46.84162" lon="-2.13728">
        <ele>7</ele>
        <time>2023-07-01T13:29:49+00:00</time>
      </trkpt>
      <trkpt lat="46.84167" lon="-2.13809">
        <ele>7</ele>
        <time>2023-07-01T13:29:50+00:00</time>
      </trkpt>
      <trkpt lat="46.84174" lon="-2.13877">
        <ele>7</ele>
        <time>2023-07-01T13:29:51+00:00</time>
      </trkpt>
      <trkpt lat="46.84152" lon="-2.1398">
        <ele>8</ele>
        <time>2023-07-01T13:29:52+00:00</time>
      </trkpt>
      <trkpt lat="46.84154" lon="-2.14032">
        <ele>9</ele>
        <time>2023-07-01T13:29:53+00:00</time>
      </trkpt>
      <trkpt lat="46.84152" lon="-2.14061">
        <ele>10</ele>
        <time>2023-07-01T13:29:54+00:00</time>
      </trkpt>
      <trkpt lat="46.84105" lon="-2.14053">
        <ele>11</ele>
        <time>2023-07-01T13:29:55+00:00</time>
      </trkpt>
      <trkpt lat="46.84091" lon="-2.14083">
        <ele>12</ele>
        <time>2023-07-01T13:29:56+00:00</time>
      </trkpt>
      <trkpt lat="46.84067" lon="-2.141">
        <ele>12</ele>
        <time>2023-07-01T13:29:57+00:00</time>
      </trkpt>
      <trkpt lat="46.83966" lon="-2.14065">
        <ele>10</ele>
        <time>2023-07-01T13:29:58+00:00</time>
      </trkpt>
      <trkpt lat="46.83931" lon="-2.14076">
        <ele>10</ele>
        <time>2023-07-01T13:29:59+00:00</time>
      </trkpt>
      <trkpt lat="46.83904" lon="-2.14061">
        <ele>10</ele>
        <time>2023-07-01T13:30:00+00:00</time>
      </trkpt>
      <trkpt lat="46.83871" lon="-2.1406">
        <ele>10</ele>
        <time>2023-07-01T13:30:01+00:00</time>
      </trkpt>
      <trkpt lat="46.8384" lon="-2.14049">
        <ele>11</ele>
        <time>2023-07-01T13:30:02+00:00</time>
      </trkpt>
      <trkpt lat="46.8381" lon="-2.14042">
        <ele>10</ele>
        <time>2023-07-01T13:30:03+00:00</time>
      </trkpt>
      <trkpt lat="46.83787" lon="-2.14031">
        <ele>9</ele>
        <time>2023-07-01T13:30:04+00:00</time>
      </trkpt>
      <trkpt lat="46.83717" lon="-2.14026">
        <ele>8</ele>
        <time>2023-07-01T13:30:05+00:00</time>
      </trkpt>
      <trkpt lat="46.83716" lon="-2.14085">
        <ele>7</ele>
        <time>2023-07-01T13:30:06+00:00</time>
      </trkpt>
      <trkpt lat="46.83726" lon="-2.14163">
        <ele>7</ele>
        <time>2023-07-01T13:30:07+00:00</time>
      </trkpt>
      <trkpt lat="46.83654" lon="-2.1416">
        <ele>7</ele>
        <time>2023-07-01T13:30:08+00:00</time>
      </trkpt>
      <trkpt lat="46.83521" lon="-2.14146">
        <ele>8</ele>
        <time>2023-07-01T13:30:09+00:00</time>
      </trkpt>
      <trkpt lat="46.8347" lon="-2.14138">
        <ele>8</ele>
        <time>2023-07-01T13:30:10+00:00</time>
      </trkpt>
      <trkpt lat="46.83442" lon="-2.14123">
        <ele>9</ele>
        <time>2023-07-01T13:30:11+00:00</time>
      </trkpt>
      <trkpt lat="46.83402" lon="-2.14088">
        <ele>9</ele>
        <time>2023-07-01T13:30:12+00:00</time>
      </trkpt>
      <trkpt lat="46.83315" lon="-2.1408">
        <ele>9</ele>
        <time>2023-07-01T13:30:13+00:00</time>
      </trkpt>
      <trkpt lat="46.83188" lon="-2.14081">
        <ele>10</ele>
        <time>2023-07-01T13:30:14+00:00</time>
      </trkpt>
      <trkpt lat="46.83189" lon="-2.14046">
        <ele>9</ele>
        <time>2023-07-01T13:30:15+00:00</time>
      </trkpt>
      <trkpt lat="46.83162" lon="-2.13984">
        <ele>8</ele>
        <time>2023-07-01T13:30:16+00:00</time>
      </trkpt>
      <trkpt lat="46.83138" lon="-2.14007">
        <ele>8</ele>
        <time>2023-07-01T13:30:17+00:00</time>
      </trkpt>
      <trkpt lat="46.83082" lon="-2.14021">
        <ele>9</ele>
        <time>2023-07-01T13:30:18+00:00</time>
      </trkpt>
      <trkpt lat="46.82959" lon="-2.13985">
        <ele>7</ele>
        <time>2023-07-01T13:30:19+00:00</time>
      </trkpt>
      <trkpt lat="46.82892" lon="-2.13957">
        <ele>8</ele>
        <time>2023-07-01T13:30:20+00:00</time>
      </trkpt>
      <trkpt lat="46.8281" lon="-2.13963">
        <ele>8</ele>
        <time>2023-07-01T13:30:21+00:00</time>
      </trkpt>
      <trkpt lat="46.82732" lon="-2.13946">
        <ele>8</ele>
        <time>2023-07-01T13:30:22+00:00</time>
      </trkpt>
      <trkpt lat="46.82738" lon="-2.13928">
        <ele>8</ele>
        <time>2023-07-01T13:30:23+00:00</time>
      </trkpt>
      <trkpt lat="46.82733" lon="-2.13907">
        <ele>8</ele>
        <time>2023-07-01T13:30:24+00:00</time>
      </trkpt>
      <trkpt lat="46.82741" lon="-2.13882">
        <ele>8</ele>
        <time>2023-07-01T13:30:25+00:00</time>
      </trkpt>
      <trkpt lat="46.82681" lon="-2.1383">
        <ele>6</ele>
        <time>2023-07-01T13:30:26+00:00</time>
      </trkpt>
      <trkpt lat="46.82704" lon="-2.13742">
        <ele>9</ele>
        <time>2023-07-01T13:30:27+00:00</time>
      </trkpt>
      <trkpt lat="46.82686" lon="-2.1368">
        <ele>9</ele>
        <time>2023-07-01T13:30:28+00:00</time>
      </trkpt>
      <trkpt lat="46.82642" lon="-2.13624">
        <ele>9</ele>
        <time>2023-07-01T13:30:29+00:00</time>
      </trkpt>
      <trkpt lat="46.82613" lon="-2.1361">
        <ele>8</ele>
        <time>2023-07-01T13:30:30+00:00</time>
      </trkpt>
      <trkpt lat="46.82545" lon="-2.13586">
        <ele>8</ele>
        <time>2023-07-01T13:30:31+00:00</time>
      </trkpt>
      <trkpt lat="46.82466" lon="-2.13576">
        <ele>9</ele>
        <time>2023-07-01T13:30:32+00:00</time>
      </trkpt>
      <trkpt lat="46.8245" lon="-2.13569">
        <ele>9</ele>
        <time>2023-07-01T13:30:33+00:00</time>
      </trkpt>
      <trkpt lat="46.82434" lon="-2.13567">
        <ele>9</ele>
        <time>2023-07-01T13:30:34+00:00</time>
      </trkpt>
      <trkpt lat="46.82424" lon="-2.13561">
        <ele>9</ele>
        <time>2023-07-01T13:30:35+00:00</time>
      </trkpt>
      <trkpt lat="46.8242" lon="-2.13547">
        <ele>9</ele>
        <time>2023-07-01T13:30:36+00:00</time>
      </trkpt>
      <trkpt lat="46.82373" lon="-2.13553">
        <ele>9</ele>
        <time>2023-07-01T13:30:37+00:00</time>
      </trkpt>
      <trkpt lat="46.82342" lon="-2.13564">
        <ele>8</ele>
        <time>2023-07-01T13:30:38+00:00</time>
      </trkpt>
      <trkpt lat="46.82332" lon="-2.13597">
        <ele>8</ele>
        <time>2023-07-01T13:30:39+00:00</time>
      </trkpt>
      <trkpt lat="46.82334" lon="-2.13648">
        <ele>6</ele>
        <time>2023-07-01T13:30:40+00:00</time>
      </trkpt>
      <trkpt lat="46.82332" lon="-2.13663">
        <ele>6</ele>
        <time>2023-07-01T13:30:41+00:00</time>
      </trkpt>
      <trkpt lat="46.82307" lon="-2.13727">
        <ele>6</ele>
        <time>2023-07-01T13:30:42+00:00</time>
      </trkpt>
      <trkpt lat="46.82301" lon="-2.13755">
        <ele>6</ele>
        <time>2023-07-01T13:30:43+00:00</time>
      </trkpt>
      <trkpt lat="46.82296" lon="-2.13762">
        <ele>6</ele>
        <time>2023-07-01T13:30:44+00:00</time>
      </trkpt>
      <trkpt lat="46.82252" lon="-2.13765">
        <ele>5</ele>
        <time>2023-07-01T13:30:45+00:00</time>
      </trkpt>
      <trkpt lat="46.82233" lon="-2.13763">
        <ele>5</ele>
        <time>2023-07-01T13:30:46+00:00</time>
      </trkpt>
      <trkpt lat="46.82223" lon="-2.13758">
        <ele>5</ele>
        <time>2023-07-01T13:30:47+00:00</time>
      </trkpt>
      <trkpt lat="46.82224" lon="-2.13689">
        <ele>6</ele>
        <time>2023-07-01T13:30:48+00:00</time>
      </trkpt>
      <trkpt lat="46.82202" lon="-2.13673">
        <ele>6</ele>
        <time>2023-07-01T13:30:49+00:00</time>
      </trkpt>
      <trkpt lat="46.82187" lon="-2.13639">
        <ele>7</ele>
        <time>2023-07-01T13:30:50+00:00</time>
      </trkpt>
      <trkpt lat="46.82165" lon="-2.13611">
        <ele>8</ele>
        <time>2023-07-01T13:30:51+00:00</time>
      </trkpt>
      <trkpt lat="46.82128" lon="-2.13588">
        <ele>8</ele>
        <time>2023-07-01T13:30:52+00:00</time>
      </trkpt>
      <trkpt lat="46.82117" lon="-2.13569">
        <ele>8</ele>
        <time>2023-07-01T13:30:53+00:00</time>
      </trkpt>
      <trkpt lat="46.82106" lon="-2.13556">
        <ele>9</ele>
        <time>2023-07-01T13:30:54+00:00</time>
      </trkpt>
      <trkpt lat="46.82109" lon="-2.13522">
        <ele>9</ele>
        <time>2023-07-01T13:30:55+00:00</time>
      </trkpt>
      <trkpt lat="46.81987" lon="-2.13467">
        <ele>10</ele>
        <time>2023-07-01T13:30:56+00:00</time>
      </trkpt>
      <trkpt lat="46.81968" lon="-2.13452">
        <ele>10</ele>
        <time>2023-07-01T13:30:57+00:00</time>
      </trkpt>
      <trkpt lat="46.81958" lon="-2.13423">
        <ele>10</ele>
        <time>2023-07-01T13:30:58+00:00</time>
      </trkpt>
      <trkpt lat="46.81942" lon="-2.13355">
        <ele>9</ele>
        <time>2023-07-01T13:30:59+00:00</time>
      </trkpt>
      <trkpt lat="46.81927" lon="-2.13285">
        <ele>7</ele>
        <time>2023-07-01T13:31:00+00:00</time>
      </trkpt>
      <trkpt lat="46.81914" lon="-2.13199">
        <ele>8</ele>
        <time>2023-07-01T13:31:01+00:00</time>
      </trkpt>
      <trkpt lat="46.81903" lon="-2.1316">
        <ele>8</ele>
        <time>2023-07-01T13:31:02+00:00</time>
      </trkpt>
      <trkpt lat="46.81885" lon="-2.13147">
        <ele>8</ele>
        <time>2023-07-01T13:31:03+00:00</time>
      </trkpt>
      <trkpt lat="46.81866" lon="-2.13141">
        <ele>8</ele>
        <time>2023-07-01T13:31:04+00:00</time>
      </trkpt>
      <trkpt lat="46.81839" lon="-2.13122">
        <ele>8</ele>
        <time>2023-07-01T13:31:05+00:00</time>
      </trkpt>
      <trkpt lat="46.81828" lon="-2.13122">
        <ele>9</ele>
        <time>2023-07-01T13:31:06+00:00</time>
      </trkpt>
      <trkpt lat="46.818" lon="-2.13113">
        <ele>9</ele>
        <time>2023-07-01T13:31:07+00:00</time>
      </trkpt>
      <trkpt lat="46.81785" lon="-2.13114">
        <ele>9</ele>
        <time>2023-07-01T13:31:08+00:00</time>
      </trkpt>
      <trkpt lat="46.81756" lon="-2.13102">
        <ele>10</ele>
        <time>2023-07-01T13:31:09+00:00</time>
      </trkpt>
      <trkpt lat="46.81726" lon="-2.13076">
        <ele>11</ele>
        <time>2023-07-01T13:31:10+00:00</time>
      </trkpt>
      <trkpt lat="46.8172" lon="-2.13058">
        <ele>11</ele>
        <time>2023-07-01T13:31:11+00:00</time>
      </trkpt>
      <trkpt lat="46.81703" lon="-2.13036">
        <ele>12</ele>
        <time>2023-07-01T13:31:12+00:00</time>
      </trkpt>
      <trkpt lat="46.81684" lon="-2.13017">
        <ele>13</ele>
        <time>2023-07-01T13:31:13+00:00</time>
      </trkpt>
      <trkpt lat="46.81646" lon="-2.12953">
        <ele>13</ele>
        <time>2023-07-01T13:31:14+00:00</time>
      </trkpt>
      <trkpt lat="46.81621" lon="-2.12899">
        <ele>12</ele>
        <time>2023-07-01T13:31:15+00:00</time>
      </trkpt>
      <trkpt lat="46.81608" lon="-2.12893">
        <ele>11</ele>
        <time>2023-07-01T13:31:16+00:00</time>
      </trkpt>
      <trkpt lat="46.81601" lon="-2.12886">
        <ele>11</ele>
        <time>2023-07-01T13:31:17+00:00</time>
      </trkpt>
      <trkpt lat="46.81577" lon="-2.12846">
        <ele>11</ele>
        <time>2023-07-01T13:31:18+00:00</time>
      </trkpt>
      <trkpt lat="46.81561" lon="-2.1283">
        <ele>10</ele>
        <time>2023-07-01T13:31:19+00:00</time>
      </trkpt>
      <trkpt lat="46.81544" lon="-2.12792">
        <ele>11</ele>
        <time>2023-07-01T13:31:20+00:00</time>
      </trkpt>
      <trkpt lat="46.81519" lon="-2.12697">
        <ele>11</ele>
        <time>2023-07-01T13:31:21+00:00</time>
      </trkpt>
      <trkpt lat="46.81509" lon="-2.12692">
        <ele>12</ele>
        <time>2023-07-01T13:31:22+00:00</time>
      </trkpt>
      <trkpt lat="46.81487" lon="-2.1271">
        <ele>11</ele>
        <time>2023-07-01T13:31:23+00:00</time>
      </trkpt>
      <trkpt lat="46.81462" lon="-2.1271">
        <ele>10</ele>
        <time>2023-07-01T13:31:24+00:00</time>
      </trkpt>
      <trkpt lat="46.81452" lon="-2.12706">
        <ele>9</ele>
        <time>2023-07-01T13:31:25+00:00</time>
      </trkpt>
      <trkpt lat="46.81437" lon="-2.12686">
        <ele>9</ele>
        <time>2023-07-01T13:31:26+00:00</time>
      </trkpt>
      <trkpt lat="46.81412" lon="-2.12674">
        <ele>8</ele>
        <time>2023-07-01T13:31:27+00:00</time>
      </trkpt>
      <trkpt lat="46.81393" lon="-2.12668">
        <ele>7</ele>
        <time>2023-07-01T13:31:28+00:00</time>
      </trkpt>
      <trkpt lat="46.8138" lon="-2.12654">
        <ele>8</ele>
        <time>2023-07-01T13:31:29+00:00</time>
      </trkpt>
      <trkpt lat="46.81372" lon="-2.12627">
        <ele>9</ele>
        <time>2023-07-01T13:31:30+00:00</time>
      </trkpt>
      <trkpt lat="46.81368" lon="-2.12586">
        <ele>10</ele>
        <time>2023-07-01T13:31:31+00:00</time>
      </trkpt>
      <trkpt lat="46.81342" lon="-2.12535">
        <ele>11</ele>
        <time>2023-07-01T13:31:32+00:00</time>
      </trkpt>
      <trkpt lat="46.81322" lon="-2.12516">
        <ele>11</ele>
        <time>2023-07-01T13:31:33+00:00</time>
      </trkpt>
      <trkpt lat="46.81301" lon="-2.12516">
        <ele>10</ele>
        <time>2023-07-01T13:31:34+00:00</time>
      </trkpt>
      <trkpt lat="46.81274" lon="-2.12526">
        <ele>8</ele>
        <time>2023-07-01T13:31:35+00:00</time>
      </trkpt>
      <trkpt lat="46.81251" lon="-2.12514">
        <ele>7</ele>
        <time>2023-07-01T13:31:36+00:00</time>
      </trkpt>
      <trkpt lat="46.81202" lon="-2.12504">
        <ele>6</ele>
        <time>2023-07-01T13:31:37+00:00</time>
      </trkpt>
      <trkpt lat="46.81192" lon="-2.12489">
        <ele>6</ele>
        <time>2023-07-01T13:31:38+00:00</time>
      </trkpt>
      <trkpt lat="46.81193" lon="-2.12469">
        <ele>6</ele>
        <time>2023-07-01T13:31:39+00:00</time>
      </trkpt>
      <trkpt lat="46.81278" lon="-2.1229">
        <ele>7</ele>
        <time>2023-07-01T13:31:40+00:00</time>
      </trkpt>
      <trkpt lat="46.81275" lon="-2.1228">
        <ele>7</ele>
        <time>2023-07-01T13:31:41+00:00</time>
      </trkpt>
      <trkpt lat="46.81308" lon="-2.12209">
        <ele>6</ele>
        <time>2023-07-01T13:31:42+00:00</time>
      </trkpt>
      <trkpt lat="46.81339" lon="-2.12181">
        <ele>4</ele>
        <time>2023-07-01T13:31:43+00:00</time>
      </trkpt>
      <trkpt lat="46.81339" lon="-2.12173">
        <ele>4</ele>
        <time>2023-07-01T13:31:44+00:00</time>
      </trkpt>
      <trkpt lat="46.81319" lon="-2.12128">
        <ele>5</ele>
        <time>2023-07-01T13:31:45+00:00</time>
      </trkpt>
      <trkpt lat="46.81254" lon="-2.12008">
        <ele>7</ele>
        <time>2023-07-01T13:31:46+00:00</time>
      </trkpt>
      <trkpt lat="46.81189" lon="-2.11907">
        <ele>8</ele>
        <time>2023-07-01T13:31:47+00:00</time>
      </trkpt>
      <trkpt lat="46.8116" lon="-2.11879">
        <ele>8</ele>
        <time>2023-07-01T13:31:48+00:00</time>
      </trkpt>
      <trkpt lat="46.81051" lon="-2.11817">
        <ele>8</ele>
        <time>2023-07-01T13:31:49+00:00</time>
      </trkpt>
      <trkpt lat="46.81008" lon="-2.11694">
        <ele>7</ele>
        <time>2023-07-01T13:31:50+00:00</time>
      </trkpt>
      <trkpt lat="46.81001" lon="-2.11634">
        <ele>7</ele>
        <time>2023-07-01T13:31:51+00:00</time>
      </trkpt>
      <trkpt lat="46.80988" lon="-2.11588">
        <ele>6</ele>
        <time>2023-07-01T13:31:52+00:00</time>
      </trkpt>
      <trkpt lat="46.80915" lon="-2.11377">
        <ele>8</ele>
        <time>2023-07-01T13:31:53+00:00</time>
      </trkpt>
      <trkpt lat="46.80877" lon="-2.11249">
        <ele>6</ele>
        <time>2023-07-01T13:31:54+00:00</time>
      </trkpt>
      <trkpt lat="46.80857" lon="-2.11197">
        <ele>8</ele>
        <time>2023-07-01T13:31:55+00:00</time>
      </trkpt>
      <trkpt lat="46.80845" lon="-2.11186">
        <ele>9</ele>
        <time>2023-07-01T13:31:56+00:00</time>
      </trkpt>
      <trkpt lat="46.80747" lon="-2.11324">
        <ele>5</ele>
        <time>2023-07-01T13:31:57+00:00</time>
      </trkpt>
      <trkpt lat="46.80754" lon="-2.11303">
        <ele>7</ele>
        <time>2023-07-01T13:31:58+00:00</time>
      </trkpt>
      <trkpt lat="46.80753" lon="-2.11256">
        <ele>9</ele>
        <time>2023-07-01T13:31:59+00:00</time>
      </trkpt>
      <trkpt lat="46.80741" lon="-2.11241">
        <ele>9</ele>
        <time>2023-07-01T13:32:00+00:00</time>
      </trkpt>
      <trkpt lat="46.80741" lon="-2.11137">
        <ele>13</ele>
        <time>2023-07-01T13:32:01+00:00</time>
      </trkpt>
      <trkpt lat="46.80657" lon="-2.10997">
        <ele>13</ele>
        <time>2023-07-01T13:32:02+00:00</time>
      </trkpt>
      <trkpt lat="46.8063" lon="-2.1092">
        <ele>14</ele>
        <time>2023-07-01T13:32:03+00:00</time>
      </trkpt>
      <trkpt lat="46.80644" lon="-2.10881">
        <ele>16</ele>
        <time>2023-07-01T13:32:04+00:00</time>
      </trkpt>
      <trkpt lat="46.8064" lon="-2.1086">
        <ele>16</ele>
        <time>2023-07-01T13:32:05+00:00</time>
      </trkpt>
      <trkpt lat="46.80618" lon="-2.10824">
        <ele>16</ele>
        <time>2023-07-01T13:32:06+00:00</time>
      </trkpt>
      <trkpt lat="46.80605" lon="-2.10783">
        <ele>16</ele>
        <time>2023-07-01T13:32:07+00:00</time>
      </trkpt>
      <trkpt lat="46.80598" lon="-2.10665">
        <ele>16</ele>
        <time>2023-07-01T13:32:08+00:00</time>
      </trkpt>
      <trkpt lat="46.80579" lon="-2.10658">
        <ele>17</ele>
        <time>2023-07-01T13:32:09+00:00</time>
      </trkpt>
      <trkpt lat="46.80539" lon="-2.10711">
        <ele>14</ele>
        <time>2023-07-01T13:32:10+00:00</time>
      </trkpt>
      <trkpt lat="46.8054" lon="-2.10598">
        <ele>16</ele>
        <time>2023-07-01T13:32:11+00:00</time>
      </trkpt>
      <trkpt lat="46.80544" lon="-2.10552">
        <ele>16</ele>
        <time>2023-07-01T13:32:12+00:00</time>
      </trkpt>
      <trkpt lat="46.80568" lon="-2.10488">
        <ele>16</ele>
        <time>2023-07-01T13:32:13+00:00</time>
      </trkpt>
      <trkpt lat="46.80568" lon="-2.10468">
        <ele>16</ele>
        <time>2023-07-01T13:32:14+00:00</time>
      </trkpt>
      <trkpt lat="46.80555" lon="-2.1045">
        <ele>15</ele>
        <time>2023-07-01T13:32:15+00:00</time>
      </trkpt>
      <trkpt lat="46.8053" lon="-2.10434">
        <ele>15</ele>
        <time>2023-07-01T13:32:16+00:00</time>
      </trkpt>
      <trkpt lat="46.8051" lon="-2.104">
        <ele>15</ele>
        <time>2023-07-01T13:32:17+00:00</time>
      </trkpt>
      <trkpt lat="46.80469" lon="-2.10392">
        <ele>15</ele>
        <time>2023-07-01T13:32:18+00:00</time>
      </trkpt>
      <trkpt lat="46.8046" lon="-2.10368">
        <ele>16</ele>
        <time>2023-07-01T13:32:19+00:00</time>
      </trkpt>
      <trkpt lat="46.8045" lon="-2.10303">
        <ele>17</ele>
        <time>2023-07-01T13:32:20+00:00</time>
      </trkpt>
      <trkpt lat="46.8042" lon="-2.10276">
        <ele>15</ele>
        <time>2023-07-01T13:32:21+00:00</time>
      </trkpt>
      <trkpt lat="46.80404" lon="-2.10282">
        <ele>15</ele>
        <time>2023-07-01T13:32:22+00:00</time>
      </trkpt>
      <trkpt lat="46.80386" lon="-2.10223">
        <ele>13</ele>
        <time>2023-07-01T13:32:23+00:00</time>
      </trkpt>
      <trkpt lat="46.8037" lon="-2.1018">
        <ele>12</ele>
        <time>2023-07-01T13:32:24+00:00</time>
      </trkpt>
      <trkpt lat="46.80319" lon="-2.10135">
        <ele>12</ele>
        <time>2023-07-01T13:32:25+00:00</time>
      </trkpt>
      <trkpt lat="46.80302" lon="-2.10113">
        <ele>12</ele>
        <time>2023-07-01T13:32:26+00:00</time>
      </trkpt>
      <trkpt lat="46.80288" lon="-2.10064">
        <ele>13</ele>
        <time>2023-07-01T13:32:27+00:00</time>
      </trkpt>
      <trkpt lat="46.80292" lon="-2.10043">
        <ele>14</ele>
        <time>2023-07-01T13:32:28+00:00</time>
      </trkpt>
      <trkpt lat="46.80305" lon="-2.10035">
        <ele>16</ele>
        <time>2023-07-01T13:32:29+00:00</time>
      </trkpt>
      <trkpt lat="46.80332" lon="-2.0991">
        <ele>23</ele>
        <time>2023-07-01T13:32:30+00:00</time>
      </trkpt>
      <trkpt lat="46.80337" lon="-2.09858">
        <ele>24</ele>
        <time>2023-07-01T13:32:31+00:00</time>
      </trkpt>
      <trkpt lat="46.80336" lon="-2.09811">
        <ele>23</ele>
        <time>2023-07-01T13:32:32+00:00</time>
      </trkpt>
      <trkpt lat="46.80331" lon="-2.09766">
        <ele>21</ele>
        <time>2023-07-01T13:32:33+00:00</time>
      </trkpt>
      <trkpt lat="46.803" lon="-2.09651">
        <ele>20</ele>
        <time>2023-07-01T13:32:34+00:00</time>
      </trkpt>
      <trkpt lat="46.80298" lon="-2.09625">
        <ele>20</ele>
        <time>2023-07-01T13:32:35+00:00</time>
      </trkpt>
      <trkpt lat="46.80304" lon="-2.0961">
        <ele>20</ele>
        <time>2023-07-01T13:32:36+00:00</time>
      </trkpt>
      <trkpt lat="46.80296" lon="-2.09606">
        <ele>20</ele>
        <time>2023-07-01T13:32:37+00:00</time>
      </trkpt>
      <trkpt lat="46.80287" lon="-2.09605">
        <ele>21</ele>
        <time>2023-07-01T13:32:38+00:00</time>
      </trkpt>
      <trkpt lat="46.80274" lon="-2.09595">
        <ele>22</ele>
        <time>2023-07-01T13:32:39+00:00</time>
      </trkpt>
      <trkpt lat="46.80266" lon="-2.09585">
        <ele>23</ele>
        <time>2023-07-01T13:32:40+00:00</time>
      </trkpt>
      <trkpt lat="46.80251" lon="-2.09486">
        <ele>23</ele>
        <time>2023-07-01T13:32:41+00:00</time>
      </trkpt>
      <trkpt lat="46.80261" lon="-2.09468">
        <ele>21</ele>
        <time>2023-07-01T13:32:42+00:00</time>
      </trkpt>
      <trkpt lat="46.80252" lon="-2.09392">
        <ele>22</ele>
        <time>2023-07-01T13:32:43+00:00</time>
      </trkpt>
      <trkpt lat="46.80245" lon="-2.09359">
        <ele>21</ele>
        <time>2023-07-01T13:32:44+00:00</time>
      </trkpt>
      <trkpt lat="46.80221" lon="-2.09337">
        <ele>20</ele>
        <time>2023-07-01T13:32:45+00:00</time>
      </trkpt>
      <trkpt lat="46.80197" lon="-2.09303">
        <ele>21</ele>
        <time>2023-07-01T13:32:46+00:00</time>
      </trkpt>
      <trkpt lat="46.80168" lon="-2.09284">
        <ele>23</ele>
        <time>2023-07-01T13:32:47+00:00</time>
      </trkpt>
      <trkpt lat="46.80158" lon="-2.09264">
        <ele>24</ele>
        <time>2023-07-01T13:32:48+00:00</time>
      </trkpt>
      <trkpt lat="46.80164" lon="-2.09209">
        <ele>24</ele>
        <time>2023-07-01T13:32:49+00:00</time>
      </trkpt>
      <trkpt lat="46.80163" lon="-2.09124">
        <ele>22</ele>
        <time>2023-07-01T13:32:50+00:00</time>
      </trkpt>
      <trkpt lat="46.80129" lon="-2.09088">
        <ele>20</ele>
        <time>2023-07-01T13:32:51+00:00</time>
      </trkpt>
      <trkpt lat="46.80112" lon="-2.09065">
        <ele>20</ele>
        <time>2023-07-01T13:32:52+00:00</time>
      </trkpt>
      <trkpt lat="46.80093" lon="-2.09053">
        <ele>20</ele>
        <time>2023-07-01T13:32:53+00:00</time>
      </trkpt>
      <trkpt lat="46.80076" lon="-2.08996">
        <ele>23</ele>
        <time>2023-07-01T13:32:54+00:00</time>
      </trkpt>
      <trkpt lat="46.80027" lon="-2.08942">
        <ele>24</ele>
        <time>2023-07-01T13:32:55+00:00</time>
      </trkpt>
      <trkpt lat="46.79996" lon="-2.08935">
        <ele>25</ele>
        <time>2023-07-01T13:32:56+00:00</time>
      </trkpt>
      <trkpt lat="46.79979" lon="-2.08906">
        <ele>25</ele>
        <time>2023-07-01T13:32:57+00:00</time>
      </trkpt>
      <trkpt lat="46.79976" lon="-2.08864">
        <ele>25</ele>
        <time>2023-07-01T13:32:58+00:00</time>
      </trkpt>
      <trkpt lat="46.79987" lon="-2.08794">
        <ele>25</ele>
        <time>2023-07-01T13:32:59+00:00</time>
      </trkpt>
      <trkpt lat="46.79976" lon="-2.08746">
        <ele>24</ele>
        <time>2023-07-01T13:33:00+00:00</time>
      </trkpt>
      <trkpt lat="46.79952" lon="-2.08703">
        <ele>21</ele>
        <time>2023-07-01T13:33:01+00:00</time>
      </trkpt>
      <trkpt lat="46.79954" lon="-2.08667">
        <ele>20</ele>
        <time>2023-07-01T13:33:02+00:00</time>
      </trkpt>
      <trkpt lat="46.79975" lon="-2.08637">
        <ele>20</ele>
        <time>2023-07-01T13:33:03+00:00</time>
      </trkpt>
      <trkpt lat="46.79963" lon="-2.08595">
        <ele>18</ele>
        <time>2023-07-01T13:33:04+00:00</time>
      </trkpt>
      <trkpt lat="46.79942" lon="-2.08551">
        <ele>18</ele>
        <time>2023-07-01T13:33:05+00:00</time>
      </trkpt>
      <trkpt lat="46.79939" lon="-2.08497">
        <ele>17</ele>
        <time>2023-07-01T13:33:06+00:00</time>
      </trkpt>
      <trkpt lat="46.79933" lon="-2.08477">
        <ele>18</ele>
        <time>2023-07-01T13:33:07+00:00</time>
      </trkpt>
      <trkpt lat="46.79946" lon="-2.08427">
        <ele>18</ele>
        <time>2023-07-01T13:33:08+00:00</time>
      </trkpt>
      <trkpt lat="46.79924" lon="-2.08363">
        <ele>19</ele>
        <time>2023-07-01T13:33:09+00:00</time>
      </trkpt>
      <trkpt lat="46.79913" lon="-2.08314">
        <ele>19</ele>
        <time>2023-07-01T13:33:10+00:00</time>
      </trkpt>
      <trkpt lat="46.79862" lon="-2.08248">
        <ele>19</ele>
        <time>2023-07-01T13:33:11+00:00</time>
      </trkpt>
      <trkpt lat="46.79832" lon="-2.08217">
        <ele>19</ele>
        <time>2023-07-01T13:33:12+00:00</time>
      </trkpt>
      <trkpt lat="46.79816" lon="-2.08185">
        <ele>18</ele>
        <time>2023-07-01T13:33:13+00:00</time>
      </trkpt>
      <trkpt lat="46.79743" lon="-2.08178">
        <ele>15</ele>
        <time>2023-07-01T13:33:14+00:00</time>
      </trkpt>
      <trkpt lat="46.79689" lon="-2.08155">
        <ele>12</ele>
        <time>2023-07-01T13:33:15+00:00</time>
      </trkpt>
      <trkpt lat="46.79681" lon="-2.08139">
        <ele>12</ele>
        <time>2023-07-01T13:33:16+00:00</time>
      </trkpt>
      <trkpt lat="46.79608" lon="-2.08098">
        <ele>12</ele>
        <time>2023-07-01T13:33:17+00:00</time>
      </trkpt>
      <trkpt lat="46.79574" lon="-2.08063">
        <ele>13</ele>
        <time>2023-07-01T13:33:18+00:00</time>
      </trkpt>
      <trkpt lat="46.79555" lon="-2.0805">
        <ele>12</ele>
        <time>2023-07-01T13:33:19+00:00</time>
      </trkpt>
      <trkpt lat="46.7954" lon="-2.08031">
        <ele>12</ele>
        <time>2023-07-01T13:33:20+00:00</time>
      </trkpt>
      <trkpt lat="46.79509" lon="-2.08018">
        <ele>10</ele>
        <time>2023-07-01T13:33:21+00:00</time>
      </trkpt>
      <trkpt lat="46.79455" lon="-2.08019">
        <ele>9</ele>
        <time>2023-07-01T13:33:22+00:00</time>
      </trkpt>
      <trkpt lat="46.79429" lon="-2.07976">
        <ele>9</ele>
        <time>2023-07-01T13:33:23+00:00</time>
      </trkpt>
      <trkpt lat="46.79425" lon="-2.07952">
        <ele>8</ele>
        <time>2023-07-01T13:33:24+00:00</time>
      </trkpt>
      <trkpt lat="46.79411" lon="-2.07905">
        <ele>8</ele>
        <time>2023-07-01T13:33:25+00:00</time>
      </trkpt>
      <trkpt lat="46.79383" lon="-2.07831">
        <ele>8</ele>
        <time>2023-07-01T13:33:26+00:00</time>
      </trkpt>
      <trkpt lat="46.79374" lon="-2.07789">
        <ele>9</ele>
        <time>2023-07-01T13:33:27+00:00</time>
      </trkpt>
      <trkpt lat="46.79357" lon="-2.07755">
        <ele>10</ele>
        <time>2023-07-01T13:33:28+00:00</time>
      </trkpt>
      <trkpt lat="46.79354" lon="-2.07737">
        <ele>10</ele>
        <time>2023-07-01T13:33:29+00:00</time>
      </trkpt>
      <trkpt lat="46.79424" lon="-2.07582">
        <ele>14</ele>
        <time>2023-07-01T13:33:30+00:00</time>
      </trkpt>
      <trkpt lat="46.79455" lon="-2.0754">
        <ele>15</ele>
        <time>2023-07-01T13:33:31+00:00</time>
      </trkpt>
      <trkpt lat="46.79501" lon="-2.0747">
        <ele>17</ele>
        <time>2023-07-01T13:33:32+00:00</time>
      </trkpt>
      <trkpt lat="46.79483" lon="-2.07419">
        <ele>17</ele>
        <time>2023-07-01T13:33:33+00:00</time>
      </trkpt>
      <trkpt lat="46.79464" lon="-2.07399">
        <ele>17</ele>
        <time>2023-07-01T13:33:34+00:00</time>
      </trkpt>
      <trkpt lat="46.79451" lon="-2.0738">
        <ele>18</ele>
        <time>2023-07-01T13:33:35+00:00</time>
      </trkpt>
      <trkpt lat="46.79439" lon="-2.07379">
        <ele>18</ele>
        <time>2023-07-01T13:33:36+00:00</time>
      </trkpt>
      <trkpt lat="46.79422" lon="-2.07386">
        <ele>17</ele>
        <time>2023-07-01T13:33:37+00:00</time>
      </trkpt>
      <trkpt lat="46.79371" lon="-2.07352">
        <ele>17</ele>
        <time>2023-07-01T13:33:38+00:00</time>
      </trkpt>
      <trkpt lat="46.79345" lon="-2.0733">
        <ele>17</ele>
        <time>2023-07-01T13:33:39+00:00</time>
      </trkpt>
      <trkpt lat="46.7933" lon="-2.07305">
        <ele>19</ele>
        <time>2023-07-01T13:33:40+00:00</time>
      </trkpt>
      <trkpt lat="46.79314" lon="-2.07291">
        <ele>20</ele>
        <time>2023-07-01T13:33:41+00:00</time>
      </trkpt>
      <trkpt lat="46.79251" lon="-2.07269">
        <ele>19</ele>
        <time>2023-07-01T13:33:42+00:00</time>
      </trkpt>
      <trkpt lat="46.79243" lon="-2.07258">
        <ele>19</ele>
        <time>2023-07-01T13:33:43+00:00</time>
      </trkpt>
      <trkpt lat="46.79225" lon="-2.07209">
        <ele>19</ele>
        <time>2023-07-01T13:33:44+00:00</time>
      </trkpt>
      <trkpt lat="46.79211" lon="-2.07189">
        <ele>19</ele>
        <time>2023-07-01T13:33:45+00:00</time>
      </trkpt>
      <trkpt lat="46.7919" lon="-2.07161">
        <ele>17</ele>
        <time>2023-07-01T13:33:46+00:00</time>
      </trkpt>
      <trkpt lat="46.7915" lon="-2.07137">
        <ele>14</ele>
        <time>2023-07-01T13:33:47+00:00</time>
      </trkpt>
      <trkpt lat="46.79132" lon="-2.07106">
        <ele>13</ele>
        <time>2023-07-01T13:33:48+00:00</time>
      </trkpt>
      <trkpt lat="46.79129" lon="-2.07081">
        <ele>13</ele>
        <time>2023-07-01T13:33:49+00:00</time>
      </trkpt>
      <trkpt lat="46.79133" lon="-2.07039">
        <ele>13</ele>
        <time>2023-07-01T13:33:50+00:00</time>
      </trkpt>
      <trkpt lat="46.79124" lon="-2.07013">
        <ele>12</ele>
        <time>2023-07-01T13:33:51+00:00</time>
      </trkpt>
      <trkpt lat="46.7913" lon="-2.06984">
        <ele>13</ele>
        <time>2023-07-01T13:33:52+00:00</time>
      </trkpt>
      <trkpt lat="46.79123" lon="-2.06949">
        <ele>14</ele>
        <time>2023-07-01T13:33:53+00:00</time>
      </trkpt>
      <trkpt lat="46.79096" lon="-2.06943">
        <ele>12</ele>
        <time>2023-07-01T13:33:54+00:00</time>
      </trkpt>
      <trkpt lat="46.79079" lon="-2.06922">
        <ele>12</ele>
        <time>2023-07-01T13:33:55+00:00</time>
      </trkpt>
      <trkpt lat="46.79048" lon="-2.06922">
        <ele>11</ele>
        <time>2023-07-01T13:33:56+00:00</time>
      </trkpt>
      <trkpt lat="46.79032" lon="-2.06909">
        <ele>11</ele>
        <time>2023-07-01T13:33:57+00:00</time>
      </trkpt>
      <trkpt lat="46.79028" lon="-2.06891">
        <ele>11</ele>
        <time>2023-07-01T13:33:58+00:00</time>
      </trkpt>
      <trkpt lat="46.79012" lon="-2.0687">
        <ele>10</ele>
        <time>2023-07-01T13:33:59+00:00</time>
      </trkpt>
      <trkpt lat="46.78999" lon="-2.06826">
        <ele>10</ele>
        <time>2023-07-01T13:34:00+00:00</time>
      </trkpt>
      <trkpt lat="46.78991" lon="-2.06786">
        <ele>12</ele>
        <time>2023-07-01T13:34:01+00:00</time>
      </trkpt>
      <trkpt lat="46.79" lon="-2.0669">
        <ele>15</ele>
        <time>2023-07-01T13:34:02+00:00</time>
      </trkpt>
      <trkpt lat="46.78996" lon="-2.06665">
        <ele>15</ele>
        <time>2023-07-01T13:34:03+00:00</time>
      </trkpt>
      <trkpt lat="46.78987" lon="-2.06654">
        <ele>15</ele>
        <time>2023-07-01T13:34:04+00:00</time>
      </trkpt>
      <trkpt lat="46.7899" lon="-2.06629">
        <ele>15</ele>
        <time>2023-07-01T13:34:05+00:00</time>
      </trkpt>
      <trkpt lat="46.78986" lon="-2.06615">
        <ele>15</ele>
        <time>2023-07-01T13:34:06+00:00</time>
      </trkpt>
      <trkpt lat="46.78934" lon="-2.06624">
        <ele>13</ele>
        <time>2023-07-01T13:34:07+00:00</time>
      </trkpt>
      <trkpt lat="46.78928" lon="-2.06622">
        <ele>13</ele>
        <time>2023-07-01T13:34:08+00:00</time>
      </trkpt>
      <trkpt lat="46.78918" lon="-2.0659">
        <ele>12</ele>
        <time>2023-07-01T13:34:09+00:00</time>
      </trkpt>
      <trkpt lat="46.78927" lon="-2.0646">
        <ele>15</ele>
        <time>2023-07-01T13:34:10+00:00</time>
      </trkpt>
      <trkpt lat="46.7897" lon="-2.06309">
        <ele>13</ele>
        <time>2023-07-01T13:34:11+00:00</time>
      </trkpt>
      <trkpt lat="46.79003" lon="-2.06281">
        <ele>12</ele>
        <time>2023-07-01T13:34:12+00:00</time>
      </trkpt>
      <trkpt lat="46.78996" lon="-2.06247">
        <ele>11</ele>
        <time>2023-07-01T13:34:13+00:00</time>
      </trkpt>
      <trkpt lat="46.78942" lon="-2.06259">
        <ele>12</ele>
        <time>2023-07-01T13:34:14+00:00</time>
      </trkpt>
      <trkpt lat="46.7886" lon="-2.06256">
        <ele>10</ele>
        <time>2023-07-01T13:34:15+00:00</time>
      </trkpt>
      <trkpt lat="46.78787" lon="-2.06174">
        <ele>10</ele>
        <time>2023-07-01T13:34:16+00:00</time>
      </trkpt>
      <trkpt lat="46.7874" lon="-2.06133">
        <ele>10</ele>
        <time>2023-07-01T13:34:17+00:00</time>
      </trkpt>
      <trkpt lat="46.78697" lon="-2.06072">
        <ele>10</ele>
        <time>2023-07-01T13:34:18+00:00</time>
      </trkpt>
      <trkpt lat="46.78682" lon="-2.06041">
        <ele>11</ele>
        <time>2023-07-01T13:34:19+00:00</time>
      </trkpt>
      <trkpt lat="46.78689" lon="-2.05964">
        <ele>13</ele>
        <time>2023-07-01T13:34:20+00:00</time>
      </trkpt>
      <trkpt lat="46.78682" lon="-2.05936">
        <ele>13</ele>
        <time>2023-07-01T13:34:21+00:00</time>
      </trkpt>
      <trkpt lat="46.78676" lon="-2.05923">
        <ele>13</ele>
        <time>2023-07-01T13:34:22+00:00</time>
      </trkpt>
      <trkpt lat="46.78665" lon="-2.05915">
        <ele>13</ele>
        <time>2023-07-01T13:34:23+00:00</time>
      </trkpt>
      <trkpt lat="46.78647" lon="-2.05891">
        <ele>11</ele>
        <time>2023-07-01T13:34:24+00:00</time>
      </trkpt>
      <trkpt lat="46.78641" lon="-2.05867">
        <ele>10</ele>
        <time>2023-07-01T13:34:25+00:00</time>
      </trkpt>
      <trkpt lat="46.78617" lon="-2.05868">
        <ele>10</ele>
        <time>2023-07-01T13:34:26+00:00</time>
      </trkpt>
      <trkpt lat="46.78549" lon="-2.05849">
        <ele>9</ele>
        <time>2023-07-01T13:34:27+00:00</time>
      </trkpt>
      <trkpt lat="46.78536" lon="-2.05848">
        <ele>9</ele>
        <time>2023-07-01T13:34:28+00:00</time>
      </trkpt>
      <trkpt lat="46.78471" lon="-2.05853">
        <ele>10</ele>
        <time>2023-07-01T13:34:29+00:00</time>
      </trkpt>
      <trkpt lat="46.78492" lon="-2.05839">
        <ele>10</ele>
        <time>2023-07-01T13:34:30+00:00</time>
      </trkpt>
      <trkpt lat="46.78522" lon="-2.05808">
        <ele>10</ele>
        <time>2023-07-01T13:34:31+00:00</time>
      </trkpt>
      <trkpt lat="46.7856" lon="-2.05776">
        <ele>9</ele>
        <time>2023-07-01T13:34:32+00:00</time>
      </trkpt>
      <trkpt lat="46.78575" lon="-2.0576">
        <ele>9</ele>
        <time>2023-07-01T13:34:33+00:00</time>
      </trkpt>
      <trkpt lat="46.7857" lon="-2.05726">
        <ele>9</ele>
        <time>2023-07-01T13:34:34+00:00</time>
      </trkpt>
      <trkpt lat="46.78457" lon="-2.05467">
        <ele>16</ele>
        <time>2023-07-01T13:34:35+00:00</time>
      </trkpt>
      <trkpt lat="46.78415" lon="-2.05362">
        <ele>12</ele>
        <time>2023-07-01T13:34:36+00:00</time>
      </trkpt>
      <trkpt lat="46.78389" lon="-2.05329">
        <ele>11</ele>
        <time>2023-07-01T13:34:37+00:00</time>
      </trkpt>
      <trkpt lat="46.78288" lon="-2.05575">
        <ele>8</ele>
        <time>2023-07-01T13:34:38+00:00</time>
      </trkpt>
      <trkpt lat="46.78235" lon="-2.05454">
        <ele>9</ele>
        <time>2023-07-01T13:34:39+00:00</time>
      </trkpt>
      <trkpt lat="46.78255" lon="-2.05418">
        <ele>10</ele>
        <time>2023-07-01T13:34:40+00:00</time>
      </trkpt>
      <trkpt lat="46.78254" lon="-2.05363">
        <ele>13</ele>
        <time>2023-07-01T13:34:41+00:00</time>
      </trkpt>
      <trkpt lat="46.78256" lon="-2.05319">
        <ele>15</ele>
        <time>2023-07-01T13:34:42+00:00</time>
      </trkpt>
      <trkpt lat="46.78282" lon="-2.05252">
        <ele>16</ele>
        <time>2023-07-01T13:34:43+00:00</time>
      </trkpt>
      <trkpt lat="46.78286" lon="-2.05192">
        <ele>15</ele>
        <time>2023-07-01T13:34:44+00:00</time>
      </trkpt>
      <trkpt lat="46.78302" lon="-2.0514">
        <ele>14</ele>
        <time>2023-07-01T13:34:45+00:00</time>
      </trkpt>
      <trkpt lat="46.78327" lon="-2.05121">
        <ele>15</ele>
        <time>2023-07-01T13:34:46+00:00</time>
      </trkpt>
      <trkpt lat="46.78346" lon="-2.05097">
        <ele>14</ele>
        <time>2023-07-01T13:34:47+00:00</time>
      </trkpt>
      <trkpt lat="46.78356" lon="-2.05045">
        <ele>15</ele>
        <time>2023-07-01T13:34:48+00:00</time>
      </trkpt>
      <trkpt lat="46.78363" lon="-2.05024">
        <ele>15</ele>
        <time>2023-07-01T13:34:49+00:00</time>
      </trkpt>
      <trkpt lat="46.78361" lon="-2.04991">
        <ele>15</ele>
        <time>2023-07-01T13:34:50+00:00</time>
      </trkpt>
      <trkpt lat="46.78345" lon="-2.04936">
        <ele>15</ele>
        <time>2023-07-01T13:34:51+00:00</time>
      </trkpt>
      <trkpt lat="46.78331" lon="-2.04929">
        <ele>15</ele>
        <time>2023-07-01T13:34:52+00:00</time>
      </trkpt>
      <trkpt lat="46.78345" lon="-2.049">
        <ele>14</ele>
        <time>2023-07-01T13:34:53+00:00</time>
      </trkpt>
      <trkpt lat="46.78352" lon="-2.04824">
        <ele>13</ele>
        <time>2023-07-01T13:34:54+00:00</time>
      </trkpt>
      <trkpt lat="46.78332" lon="-2.04763">
        <ele>14</ele>
        <time>2023-07-01T13:34:55+00:00</time>
      </trkpt>
      <trkpt lat="46.78338" lon="-2.04698">
        <ele>14</ele>
        <time>2023-07-01T13:34:56+00:00</time>
      </trkpt>
      <trkpt lat="46.78348" lon="-2.0465">
        <ele>14</ele>
        <time>2023-07-01T13:34:57+00:00</time>
      </trkpt>
      <trkpt lat="46.78349" lon="-2.04602">
        <ele>15</ele>
        <time>2023-07-01T13:34:58+00:00</time>
      </trkpt>
      <trkpt lat="46.78362" lon="-2.04571">
        <ele>15</ele>
        <time>2023-07-01T13:34:59+00:00</time>
      </trkpt>
      <trkpt lat="46.7838" lon="-2.04549">
        <ele>16</ele>
        <time>2023-07-01T13:35:00+00:00</time>
      </trkpt>
      <trkpt lat="46.78395" lon="-2.04519">
        <ele>16</ele>
        <time>2023-07-01T13:35:01+00:00</time>
      </trkpt>
      <trkpt lat="46.78405" lon="-2.04449">
        <ele>15</ele>
        <time>2023-07-01T13:35:02+00:00</time>
      </trkpt>
      <trkpt lat="46.78384" lon="-2.04362">
        <ele>11</ele>
        <time>2023-07-01T13:35:03+00:00</time>
      </trkpt>
      <trkpt lat="46.78384" lon="-2.04349">
        <ele>10</ele>
        <time>2023-07-01T13:35:04+00:00</time>
      </trkpt>
      <trkpt lat="46.78379" lon="-2.04341">
        <ele>10</ele>
        <time>2023-07-01T13:35:05+00:00</time>
      </trkpt>
      <trkpt lat="46.7838" lon="-2.04318">
        <ele>9</ele>
        <time>2023-07-01T13:35:06+00:00</time>
      </trkpt>
      <trkpt lat="46.78367" lon="-2.04264">
        <ele>10</ele>
        <time>2023-07-01T13:35:07+00:00</time>
      </trkpt>
      <trkpt lat="46.78363" lon="-2.04154">
        <ele>10</ele>
        <time>2023-07-01T13:35:08+00:00</time>
      </trkpt>
      <trkpt lat="46.78353" lon="-2.041">
        <ele>10</ele>
        <time>2023-07-01T13:35:09+00:00</time>
      </trkpt>
      <trkpt lat="46.78334" lon="-2.04063">
        <ele>11</ele>
        <time>2023-07-01T13:35:10+00:00</time>
      </trkpt>
      <trkpt lat="46.78284" lon="-2.03995">
        <ele>10</ele>
        <time>2023-07-01T13:35:11+00:00</time>
      </trkpt>
      <trkpt lat="46.7827" lon="-2.03951">
        <ele>10</ele>
        <time>2023-07-01T13:35:12+00:00</time>
      </trkpt>
      <trkpt lat="46.78265" lon="-2.03876">
        <ele>10</ele>
        <time>2023-07-01T13:35:13+00:00</time>
      </trkpt>
      <trkpt lat="46.78297" lon="-2.03825">
        <ele>9</ele>
        <time>2023-07-01T13:35:14+00:00</time>
      </trkpt>
      <trkpt lat="46.78325" lon="-2.03794">
        <ele>10</ele>
        <time>2023-07-01T13:35:15+00:00</time>
      </trkpt>
      <trkpt lat="46.78335" lon="-2.03768">
        <ele>10</ele>
        <time>2023-07-01T13:35:16+00:00</time>
      </trkpt>
      <trkpt lat="46.7834" lon="-2.03745">
        <ele>10</ele>
        <time>2023-07-01T13:35:17+00:00</time>
      </trkpt>
      <trkpt lat="46.78361" lon="-2.03735">
        <ele>9</ele>
        <time>2023-07-01T13:35:18+00:00</time>
      </trkpt>
      <trkpt lat="46.7839" lon="-2.03727">
        <ele>8</ele>
        <time>2023-07-01T13:35:19+00:00</time>
      </trkpt>
      <trkpt lat="46.78393" lon="-2.0367">
        <ele>8</ele>
        <time>2023-07-01T13:35:20+00:00</time>
      </trkpt>
      <trkpt lat="46.7839" lon="-2.03653">
        <ele>8</ele>
        <time>2023-07-01T13:35:21+00:00</time>
      </trkpt>
      <trkpt lat="46.78347" lon="-2.036">
        <ele>9</ele>
        <time>2023-07-01T13:35:22+00:00</time>
      </trkpt>
      <trkpt lat="46.78306" lon="-2.03601">
        <ele>10</ele>
        <time>2023-07-01T13:35:23+00:00</time>
      </trkpt>
      <trkpt lat="46.78272" lon="-2.0361">
        <ele>9</ele>
        <time>2023-07-01T13:35:24+00:00</time>
      </trkpt>
      <trkpt lat="46.78251" lon="-2.03598">
        <ele>9</ele>
        <time>2023-07-01T13:35:25+00:00</time>
      </trkpt>
      <trkpt lat="46.7824" lon="-2.03574">
        <ele>9</ele>
        <time>2023-07-01T13:35:26+00:00</time>
      </trkpt>
      <trkpt lat="46.78232" lon="-2.03519">
        <ele>8</ele>
        <time>2023-07-01T13:35:27+00:00</time>
      </trkpt>
      <trkpt lat="46.78218" lon="-2.03488">
        <ele>8</ele>
        <time>2023-07-01T13:35:28+00:00</time>
      </trkpt>
      <trkpt lat="46.78226" lon="-2.03386">
        <ele>8</ele>
        <time>2023-07-01T13:35:29+00:00</time>
      </trkpt>
      <trkpt lat="46.78237" lon="-2.03359">
        <ele>8</ele>
        <time>2023-07-01T13:35:30+00:00</time>
      </trkpt>
      <trkpt lat="46.78232" lon="-2.03307">
        <ele>8</ele>
        <time>2023-07-01T13:35:31+00:00</time>
      </trkpt>
      <trkpt lat="46.78222" lon="-2.03293">
        <ele>8</ele>
        <time>2023-07-01T13:35:32+00:00</time>
      </trkpt>
      <trkpt lat="46.78221" lon="-2.03274">
        <ele>9</ele>
        <time>2023-07-01T13:35:33+00:00</time>
      </trkpt>
      <trkpt lat="46.78211" lon="-2.03212">
        <ele>8</ele>
        <time>2023-07-01T13:35:34+00:00</time>
      </trkpt>
      <trkpt lat="46.78173" lon="-2.03136">
        <ele>7</ele>
        <time>2023-07-01T13:35:35+00:00</time>
      </trkpt>
      <trkpt lat="46.78168" lon="-2.03108">
        <ele>7</ele>
        <time>2023-07-01T13:35:36+00:00</time>
      </trkpt>
      <trkpt lat="46.7813" lon="-2.03068">
        <ele>8</ele>
        <time>2023-07-01T13:35:37+00:00</time>
      </trkpt>
      <trkpt lat="46.78122" lon="-2.03035">
        <ele>8</ele>
        <time>2023-07-01T13:35:38+00:00</time>
      </trkpt>
      <trkpt lat="46.78113" lon="-2.03018">
        <ele>9</ele>
        <time>2023-07-01T13:35:39+00:00</time>
      </trkpt>
      <trkpt lat="46.78102" lon="-2.03005">
        <ele>9</ele>
        <time>2023-07-01T13:35:40+00:00</time>
      </trkpt>
      <trkpt lat="46.78095" lon="-2.02975">
        <ele>9</ele>
        <time>2023-07-01T13:35:41+00:00</time>
      </trkpt>
      <trkpt lat="46.78082" lon="-2.02944">
        <ele>9</ele>
        <time>2023-07-01T13:35:42+00:00</time>
      </trkpt>
      <trkpt lat="46.78064" lon="-2.02922">
        <ele>8</ele>
        <time>2023-07-01T13:35:43+00:00</time>
      </trkpt>
      <trkpt lat="46.78052" lon="-2.0292">
        <ele>8</ele>
        <time>2023-07-01T13:35:44+00:00</time>
      </trkpt>
      <trkpt lat="46.78048" lon="-2.02885">
        <ele>7</ele>
        <time>2023-07-01T13:35:45+00:00</time>
      </trkpt>
      <trkpt lat="46.78041" lon="-2.0286">
        <ele>7</ele>
        <time>2023-07-01T13:35:46+00:00</time>
      </trkpt>
      <trkpt lat="46.7803" lon="-2.02839">
        <ele>7</ele>
        <time>2023-07-01T13:35:47+00:00</time>
      </trkpt>
      <trkpt lat="46.78004" lon="-2.02814">
        <ele>8</ele>
        <time>2023-07-01T13:35:48+00:00</time>
      </trkpt>
      <trkpt lat="46.77997" lon="-2.02786">
        <ele>7</ele>
        <time>2023-07-01T13:35:49+00:00</time>
      </trkpt>
      <trkpt lat="46.77979" lon="-2.02745">
        <ele>7</ele>
        <time>2023-07-01T13:35:50+00:00</time>
      </trkpt>
      <trkpt lat="46.77952" lon="-2.0273">
        <ele>7</ele>
        <time>2023-07-01T13:35:51+00:00</time>
      </trkpt>
      <trkpt lat="46.77945" lon="-2.02697">
        <ele>7</ele>
        <time>2023-07-01T13:35:52+00:00</time>
      </trkpt>
      <trkpt lat="46.77917" lon="-2.02633">
        <ele>7</ele>
        <time>2023-07-01T13:35:53+00:00</time>
      </trkpt>
      <trkpt lat="46.77871" lon="-2.02622">
        <ele>8</ele>
        <time>2023-07-01T13:35:54+00:00</time>
      </trkpt>
      <trkpt lat="46.7785" lon="-2.02595">
        <ele>9</ele>
        <time>2023-07-01T13:35:55+00:00</time>
      </trkpt>
      <trkpt lat="46.77849" lon="-2.0256">
        <ele>8</ele>
        <time>2023-07-01T13:35:56+00:00</time>
      </trkpt>
      <trkpt lat="46.77842" lon="-2.02545">
        <ele>8</ele>
        <time>2023-07-01T13:35:57+00:00</time>
      </trkpt>
      <trkpt lat="46.77829" lon="-2.02529">
        <ele>8</ele>
        <time>2023-07-01T13:35:58+00:00</time>
      </trkpt>
      <trkpt lat="46.77809" lon="-2.02488">
        <ele>8</ele>
        <time>2023-07-01T13:35:59+00:00</time>
      </trkpt>
      <trkpt lat="46.77791" lon="-2.02443">
        <ele>8</ele>
        <time>2023-07-01T13:36:00+00:00</time>
      </trkpt>
      <trkpt lat="46.77786" lon="-2.02419">
        <ele>8</ele>
        <time>2023-07-01T13:36:01+00:00</time>
      </trkpt>
      <trkpt lat="46.77785" lon="-2.02401">
        <ele>8</ele>
        <time>2023-07-01T13:36:02+00:00</time>
      </trkpt>
      <trkpt lat="46.77766" lon="-2.02365">
        <ele>8</ele>
        <time>2023-07-01T13:36:03+00:00</time>
      </trkpt>
      <trkpt lat="46.77731" lon="-2.02333">
        <ele>8</ele>
        <time>2023-07-01T13:36:04+00:00</time>
      </trkpt>
      <trkpt lat="46.77714" lon="-2.023">
        <ele>7</ele>
        <time>2023-07-01T13:36:05+00:00</time>
      </trkpt>
      <trkpt lat="46.77692" lon="-2.02222">
        <ele>7</ele>
        <time>2023-07-01T13:36:06+00:00</time>
      </trkpt>
      <trkpt lat="46.77674" lon="-2.02213">
        <ele>7</ele>
        <time>2023-07-01T13:36:07+00:00</time>
      </trkpt>
      <trkpt lat="46.77667" lon="-2.02199">
        <ele>7</ele>
        <time>2023-07-01T13:36:08+00:00</time>
      </trkpt>
      <trkpt lat="46.77661" lon="-2.02174">
        <ele>8</ele>
        <time>2023-07-01T13:36:09+00:00</time>
      </trkpt>
      <trkpt lat="46.77646" lon="-2.02152">
        <ele>8</ele>
        <time>2023-07-01T13:36:10+00:00</time>
      </trkpt>
      <trkpt lat="46.77635" lon="-2.02148">
        <ele>7</ele>
        <time>2023-07-01T13:36:11+00:00</time>
      </trkpt>
      <trkpt lat="46.77597" lon="-2.02158">
        <ele>6</ele>
        <time>2023-07-01T13:36:12+00:00</time>
      </trkpt>
      <trkpt lat="46.77582" lon="-2.02115">
        <ele>7</ele>
        <time>2023-07-01T13:36:13+00:00</time>
      </trkpt>
      <trkpt lat="46.77571" lon="-2.02094">
        <ele>8</ele>
        <time>2023-07-01T13:36:14+00:00</time>
      </trkpt>
      <trkpt lat="46.77569" lon="-2.02077">
        <ele>8</ele>
        <time>2023-07-01T13:36:15+00:00</time>
      </trkpt>
      <trkpt lat="46.77572" lon="-2.02061">
        <ele>9</ele>
        <time>2023-07-01T13:36:16+00:00</time>
      </trkpt>
      <trkpt lat="46.77564" lon="-2.02046">
        <ele>9</ele>
        <time>2023-07-01T13:36:17+00:00</time>
      </trkpt>
      <trkpt lat="46.77562" lon="-2.02023">
        <ele>10</ele>
        <time>2023-07-01T13:36:18+00:00</time>
      </trkpt>
      <trkpt lat="46.77553" lon="-2.01989">
        <ele>10</ele>
        <time>2023-07-01T13:36:19+00:00</time>
      </trkpt>
      <trkpt lat="46.7752" lon="-2.01946">
        <ele>10</ele>
        <time>2023-07-01T13:36:20+00:00</time>
      </trkpt>
      <trkpt lat="46.77524" lon="-2.01897">
        <ele>9</ele>
        <time>2023-07-01T13:36:21+00:00</time>
      </trkpt>
      <trkpt lat="46.77509" lon="-2.01875">
        <ele>9</ele>
        <time>2023-07-01T13:36:22+00:00</time>
      </trkpt>
      <trkpt lat="46.77485" lon="-2.01848">
        <ele>8</ele>
        <time>2023-07-01T13:36:23+00:00</time>
      </trkpt>
      <trkpt lat="46.77475" lon="-2.01843">
        <ele>8</ele>
        <time>2023-07-01T13:36:24+00:00</time>
      </trkpt>
      <trkpt lat="46.77471" lon="-2.01806">
        <ele>8</ele>
        <time>2023-07-01T13:36:25+00:00</time>
      </trkpt>
      <trkpt lat="46.77452" lon="-2.01733">
        <ele>8</ele>
        <time>2023-07-01T13:36:26+00:00</time>
      </trkpt>
      <trkpt lat="46.77435" lon="-2.01712">
        <ele>8</ele>
        <time>2023-07-01T13:36:27+00:00</time>
      </trkpt>
      <trkpt lat="46.77409" lon="-2.017">
        <ele>8</ele>
        <time>2023-07-01T13:36:28+00:00</time>
      </trkpt>
      <trkpt lat="46.77397" lon="-2.01699">
        <ele>8</ele>
        <time>2023-07-01T13:36:29+00:00</time>
      </trkpt>
      <trkpt lat="46.77387" lon="-2.01691">
        <ele>7</ele>
        <time>2023-07-01T13:36:30+00:00</time>
      </trkpt>
      <trkpt lat="46.77355" lon="-2.01641">
        <ele>7</ele>
        <time>2023-07-01T13:36:31+00:00</time>
      </trkpt>
      <trkpt lat="46.77359" lon="-2.01606">
        <ele>7</ele>
        <time>2023-07-01T13:36:32+00:00</time>
      </trkpt>
      <trkpt lat="46.77364" lon="-2.01595">
        <ele>7</ele>
        <time>2023-07-01T13:36:33+00:00</time>
      </trkpt>
      <trkpt lat="46.77377" lon="-2.01522">
        <ele>8</ele>
        <time>2023-07-01T13:36:34+00:00</time>
      </trkpt>
      <trkpt lat="46.7738" lon="-2.01456">
        <ele>9</ele>
        <time>2023-07-01T13:36:35+00:00</time>
      </trkpt>
      <trkpt lat="46.77377" lon="-2.01435">
        <ele>9</ele>
        <time>2023-07-01T13:36:36+00:00</time>
      </trkpt>
      <trkpt lat="46.77385" lon="-2.014">
        <ele>10</ele>
        <time>2023-07-01T13:36:37+00:00</time>
      </trkpt>
      <trkpt lat="46.77384" lon="-2.01372">
        <ele>11</ele>
        <time>2023-07-01T13:36:38+00:00</time>
      </trkpt>
      <trkpt lat="46.774" lon="-2.01335">
        <ele>12</ele>
        <time>2023-07-01T13:36:39+00:00</time>
      </trkpt>
      <trkpt lat="46.77406" lon="-2.01312">
        <ele>13</ele>
        <time>2023-07-01T13:36:40+00:00</time>
      </trkpt>
      <trkpt lat="46.77407" lon="-2.01296">
        <ele>14</ele>
        <time>2023-07-01T13:36:41+00:00</time>
      </trkpt>
      <trkpt lat="46.77401" lon="-2.0128">
        <ele>14</ele>
        <time>2023-07-01T13:36:42+00:00</time>
      </trkpt>
      <trkpt lat="46.77388" lon="-2.01271">
        <ele>14</ele>
        <time>2023-07-01T13:36:43+00:00</time>
      </trkpt>
      <trkpt lat="46.77371" lon="-2.01254">
        <ele>15</ele>
        <time>2023-07-01T13:36:44+00:00</time>
      </trkpt>
      <trkpt lat="46.7736" lon="-2.01231">
        <ele>14</ele>
        <time>2023-07-01T13:36:45+00:00</time>
      </trkpt>
      <trkpt lat="46.77346" lon="-2.0122">
        <ele>14</ele>
        <time>2023-07-01T13:36:46+00:00</time>
      </trkpt>
      <trkpt lat="46.77311" lon="-2.0122">
        <ele>14</ele>
        <time>2023-07-01T13:36:47+00:00</time>
      </trkpt>
      <trkpt lat="46.77305" lon="-2.01207">
        <ele>14</ele>
        <time>2023-07-01T13:36:48+00:00</time>
      </trkpt>
      <trkpt lat="46.77303" lon="-2.01191">
        <ele>14</ele>
        <time>2023-07-01T13:36:49+00:00</time>
      </trkpt>
      <trkpt lat="46.77288" lon="-2.01189">
        <ele>15</ele>
        <time>2023-07-01T13:36:50+00:00</time>
      </trkpt>
      <trkpt lat="46.77281" lon="-2.01184">
        <ele>15</ele>
        <time>2023-07-01T13:36:51+00:00</time>
      </trkpt>
      <trkpt lat="46.77259" lon="-2.01146">
        <ele>15</ele>
        <time>2023-07-01T13:36:52+00:00</time>
      </trkpt>
      <trkpt lat="46.77249" lon="-2.01139">
        <ele>15</ele>
        <time>2023-07-01T13:36:53+00:00</time>
      </trkpt>
      <trkpt lat="46.77233" lon="-2.01142">
        <ele>15</ele>
        <time>2023-07-01T13:36:54+00:00</time>
      </trkpt>
      <trkpt lat="46.77209" lon="-2.01134">
        <ele>14</ele>
        <time>2023-07-01T13:36:55+00:00</time>
      </trkpt>
      <trkpt lat="46.77191" lon="-2.01131">
        <ele>13</ele>
        <time>2023-07-01T13:36:56+00:00</time>
      </trkpt>
      <trkpt lat="46.77181" lon="-2.01137">
        <ele>14</ele>
        <time>2023-07-01T13:36:57+00:00</time>
      </trkpt>
      <trkpt lat="46.77172" lon="-2.01147">
        <ele>14</ele>
        <time>2023-07-01T13:36:58+00:00</time>
      </trkpt>
      <trkpt lat="46.7715" lon="-2.01095">
        <ele>12</ele>
        <time>2023-07-01T13:36:59+00:00</time>
      </trkpt>
      <trkpt lat="46.77139" lon="-2.01078">
        <ele>12</ele>
        <time>2023-07-01T13:37:00+00:00</time>
      </trkpt>
      <trkpt lat="46.77135" lon="-2.01049">
        <ele>11</ele>
        <time>2023-07-01T13:37:01+00:00</time>
      </trkpt>
      <trkpt lat="46.77122" lon="-2.01042">
        <ele>12</ele>
        <time>2023-07-01T13:37:02+00:00</time>
      </trkpt>
      <trkpt lat="46.77117" lon="-2.01014">
        <ele>11</ele>
        <time>2023-07-01T13:37:03+00:00</time>
      </trkpt>
      <trkpt lat="46.77108" lon="-2.01009">
        <ele>11</ele>
        <time>2023-07-01T13:37:04+00:00</time>
      </trkpt>
      <trkpt lat="46.77099" lon="-2.01011">
        <ele>12</ele>
        <time>2023-07-01T13:37:05+00:00</time>
      </trkpt>
      <trkpt lat="46.77083" lon="-2.00995">
        <ele>12</ele>
        <time>2023-07-01T13:37:06+00:00</time>
      </trkpt>
      <trkpt lat="46.77073" lon="-2.00989">
        <ele>12</ele>
        <time>2023-07-01T13:37:07+00:00</time>
      </trkpt>
      <trkpt lat="46.7706" lon="-2.00987">
        <ele>12</ele>
        <time>2023-07-01T13:37:08+00:00</time>
      </trkpt>
      <trkpt lat="46.77048" lon="-2.00991">
        <ele>12</ele>
        <time>2023-07-01T13:37:09+00:00</time>
      </trkpt>
      <trkpt lat="46.77024" lon="-2.01007">
        <ele>11</ele>
        <time>2023-07-01T13:37:10+00:00</time>
      </trkpt>
      <trkpt lat="46.77026" lon="-2.01029">
        <ele>11</ele>
        <time>2023-07-01T13:37:11+00:00</time>
      </trkpt>
      <trkpt lat="46.77022" lon="-2.01042">
        <ele>11</ele>
        <time>2023-07-01T13:37:12+00:00</time>
      </trkpt>
      <trkpt lat="46.77013" lon="-2.01046">
        <ele>11</ele>
        <time>2023-07-01T13:37:13+00:00</time>
      </trkpt>
      <trkpt lat="46.77008" lon="-2.01039">
        <ele>11</ele>
        <time>2023-07-01T13:37:14+00:00</time>
      </trkpt>
      <trkpt lat="46.76986" lon="-2.01083">
        <ele>10</ele>
        <time>2023-07-01T13:37:15+00:00</time>
      </trkpt>
      <trkpt lat="46.76981" lon="-2.0112">
        <ele>11</ele>
        <time>2023-07-01T13:37:16+00:00</time>
      </trkpt>
      <trkpt lat="46.76967" lon="-2.01133">
        <ele>11</ele>
        <time>2023-07-01T13:37:17+00:00</time>
      </trkpt>
      <trkpt lat="46.76939" lon="-2.01142">
        <ele>11</ele>
        <time>2023-07-01T13:37:18+00:00</time>
      </trkpt>
      <trkpt lat="46.76943" lon="-2.01188">
        <ele>12</ele>
        <time>2023-07-01T13:37:19+00:00</time>
      </trkpt>
      <trkpt lat="46.76934" lon="-2.01211">
        <ele>12</ele>
        <time>2023-07-01T13:37:20+00:00</time>
      </trkpt>
      <trkpt lat="46.76927" lon="-2.01261">
        <ele>11</ele>
        <time>2023-07-01T13:37:21+00:00</time>
      </trkpt>
      <trkpt lat="46.76926" lon="-2.01298">
        <ele>9</ele>
        <time>2023-07-01T13:37:22+00:00</time>
      </trkpt>
      <trkpt lat="46.76898" lon="-2.01381">
        <ele>6</ele>
        <time>2023-07-01T13:37:23+00:00</time>
      </trkpt>
      <trkpt lat="46.7688" lon="-2.01411">
        <ele>5</ele>
        <time>2023-07-01T13:37:24+00:00</time>
      </trkpt>
      <trkpt lat="46.76856" lon="-2.01464">
        <ele>5</ele>
        <time>2023-07-01T13:37:25+00:00</time>
      </trkpt>
      <trkpt lat="46.76839" lon="-2.0148">
        <ele>5</ele>
        <time>2023-07-01T13:37:26+00:00</time>
      </trkpt>
      <trkpt lat="46.76826" lon="-2.01476">
        <ele>5</ele>
        <time>2023-07-01T13:37:27+00:00</time>
      </trkpt>
      <trkpt lat="46.7682" lon="-2.01477">
        <ele>5</ele>
        <time>2023-07-01T13:37:28+00:00</time>
      </trkpt>
      <trkpt lat="46.76797" lon="-2.01522">
        <ele>6</ele>
        <time>2023-07-01T13:37:29+00:00</time>
      </trkpt>
      <trkpt lat="46.76784" lon="-2.01531">
        <ele>6</ele>
        <time>2023-07-01T13:37:30+00:00</time>
      </trkpt>
      <trkpt lat="46.76783" lon="-2.01561">
        <ele>6</ele>
        <time>2023-07-01T13:37:31+00:00</time>
      </trkpt>
      <trkpt lat="46.76763" lon="-2.01579">
        <ele>7</ele>
        <time>2023-07-01T13:37:32+00:00</time>
      </trkpt>
      <trkpt lat="46.76754" lon="-2.01606">
        <ele>6</ele>
        <time>2023-07-01T13:37:33+00:00</time>
      </trkpt>
      <trkpt lat="46.76755" lon="-2.01629">
        <ele>6</ele>
        <time>2023-07-01T13:37:34+00:00</time>
      </trkpt>
      <trkpt lat="46.76788" lon="-2.01708">
        <ele>5</ele>
        <time>2023-07-01T13:37:35+00:00</time>
      </trkpt>
      <trkpt lat="46.76829" lon="-2.01711">
        <ele>5</ele>
        <time>2023-07-01T13:37:36+00:00</time>
      </trkpt>
      <trkpt lat="46.7686" lon="-2.01707">
        <ele>5</ele>
        <time>2023-07-01T13:37:37+00:00</time>
      </trkpt>
      <trkpt lat="46.76901" lon="-2.01714">
        <ele>6</ele>
        <time>2023-07-01T13:37:38+00:00</time>
      </trkpt>
      <trkpt lat="46.76928" lon="-2.0171">
        <ele>6</ele>
        <time>2023-07-01T13:37:39+00:00</time>
      </trkpt>
      <trkpt lat="46.76938" lon="-2.01699">
        <ele>6</ele>
        <time>2023-07-01T13:37:40+00:00</time>
      </trkpt>
      <trkpt lat="46.76964" lon="-2.01683">
        <ele>6</ele>
        <time>2023-07-01T13:37:41+00:00</time>
      </trkpt>
      <trkpt lat="46.76973" lon="-2.01664">
        <ele>6</ele>
        <time>2023-07-01T13:37:42+00:00</time>
      </trkpt>
      <trkpt lat="46.76987" lon="-2.01652">
        <ele>7</ele>
        <time>2023-07-01T13:37:43+00:00</time>
      </trkpt>
      <trkpt lat="46.77029" lon="-2.01556">
        <ele>6</ele>
        <time>2023-07-01T13:37:44+00:00</time>
      </trkpt>
      <trkpt lat="46.77043" lon="-2.01549">
        <ele>6</ele>
        <time>2023-07-01T13:37:45+00:00</time>
      </trkpt>
      <trkpt lat="46.77114" lon="-2.01536">
        <ele>7</ele>
        <time>2023-07-01T13:37:46+00:00</time>
      </trkpt>
      <trkpt lat="46.77138" lon="-2.01521">
        <ele>8</ele>
        <time>2023-07-01T13:37:47+00:00</time>
      </trkpt>
      <trkpt lat="46.77161" lon="-2.01542">
        <ele>9</ele>
        <time>2023-07-01T13:37:48+00:00</time>
      </trkpt>
      <trkpt lat="46.77176" lon="-2.01563">
        <ele>10</ele>
        <time>2023-07-01T13:37:49+00:00</time>
      </trkpt>
      <trkpt lat="46.77181" lon="-2.01583">
        <ele>10</ele>
        <time>2023-07-01T13:37:50+00:00</time>
      </trkpt>
      <trkpt lat="46.77193" lon="-2.016">
        <ele>10</ele>
        <time>2023-07-01T13:37:51+00:00</time>
      </trkpt>
      <trkpt lat="46.77197" lon="-2.01613">
        <ele>11</ele>
        <time>2023-07-01T13:37:52+00:00</time>
      </trkpt>
      <trkpt lat="46.77216" lon="-2.01639">
        <ele>11</ele>
        <time>2023-07-01T13:37:53+00:00</time>
      </trkpt>
      <trkpt lat="46.77218" lon="-2.01661">
        <ele>12</ele>
        <time>2023-07-01T13:37:54+00:00</time>
      </trkpt>
      <trkpt lat="46.77213" lon="-2.01682">
        <ele>11</ele>
        <time>2023-07-01T13:37:55+00:00</time>
      </trkpt>
      <trkpt lat="46.77221" lon="-2.0169">
        <ele>11</ele>
        <time>2023-07-01T13:37:56+00:00</time>
      </trkpt>
      <trkpt lat="46.77245" lon="-2.01682">
        <ele>12</ele>
        <time>2023-07-01T13:37:57+00:00</time>
      </trkpt>
      <trkpt lat="46.7726" lon="-2.01691">
        <ele>12</ele>
        <time>2023-07-01T13:37:58+00:00</time>
      </trkpt>
      <trkpt lat="46.77283" lon="-2.01695">
        <ele>10</ele>
        <time>2023-07-01T13:37:59+00:00</time>
      </trkpt>
      <trkpt lat="46.77296" lon="-2.017">
        <ele>10</ele>
        <time>2023-07-01T13:38:00+00:00</time>
      </trkpt>
      <trkpt lat="46.77315" lon="-2.01769">
        <ele>8</ele>
        <time>2023-07-01T13:38:01+00:00</time>
      </trkpt>
      <trkpt lat="46.7732" lon="-2.01798">
        <ele>7</ele>
        <time>2023-07-01T13:38:02+00:00</time>
      </trkpt>
      <trkpt lat="46.77345" lon="-2.01881">
        <ele>6</ele>
        <time>2023-07-01T13:38:03+00:00</time>
      </trkpt>
      <trkpt lat="46.77357" lon="-2.01893">
        <ele>6</ele>
        <time>2023-07-01T13:38:04+00:00</time>
      </trkpt>
      <trkpt lat="46.77364" lon="-2.01909">
        <ele>6</ele>
        <time>2023-07-01T13:38:05+00:00</time>
      </trkpt>
      <trkpt lat="46.7738" lon="-2.01924">
        <ele>6</ele>
        <time>2023-07-01T13:38:06+00:00</time>
      </trkpt>
      <trkpt lat="46.77399" lon="-2.01961">
        <ele>6</ele>
        <time>2023-07-01T13:38:07+00:00</time>
      </trkpt>
      <trkpt lat="46.77411" lon="-2.01969">
        <ele>7</ele>
        <time>2023-07-01T13:38:08+00:00</time>
      </trkpt>
      <trkpt lat="46.7748" lon="-2.02126">
        <ele>8</ele>
        <time>2023-07-01T13:38:09+00:00</time>
      </trkpt>
      <trkpt lat="46.77512" lon="-2.0219">
        <ele>6</ele>
        <time>2023-07-01T13:38:10+00:00</time>
      </trkpt>
      <trkpt lat="46.77579" lon="-2.0234">
        <ele>8</ele>
        <time>2023-07-01T13:38:11+00:00</time>
      </trkpt>
      <trkpt lat="46.77609" lon="-2.02401">
        <ele>7</ele>
        <time>2023-07-01T13:38:12+00:00</time>
      </trkpt>
      <trkpt lat="46.77619" lon="-2.0243">
        <ele>7</ele>
        <time>2023-07-01T13:38:13+00:00</time>
      </trkpt>
      <trkpt lat="46.77638" lon="-2.0244">
        <ele>7</ele>
        <time>2023-07-01T13:38:14+00:00</time>
      </trkpt>
      <trkpt lat="46.77652" lon="-2.02454">
        <ele>8</ele>
        <time>2023-07-01T13:38:15+00:00</time>
      </trkpt>
      <trkpt lat="46.77669" lon="-2.02477">
        <ele>8</ele>
        <time>2023-07-01T13:38:16+00:00</time>
      </trkpt>
      <trkpt lat="46.77679" lon="-2.02497">
        <ele>8</ele>
        <time>2023-07-01T13:38:17+00:00</time>
      </trkpt>
      <trkpt lat="46.77681" lon="-2.02571">
        <ele>9</ele>
        <time>2023-07-01T13:38:18+00:00</time>
      </trkpt>
      <trkpt lat="46.77693" lon="-2.02608">
        <ele>9</ele>
        <time>2023-07-01T13:38:19+00:00</time>
      </trkpt>
      <trkpt lat="46.77679" lon="-2.027">
        <ele>8</ele>
        <time>2023-07-01T13:38:20+00:00</time>
      </trkpt>
      <trkpt lat="46.77678" lon="-2.0272">
        <ele>7</ele>
        <time>2023-07-01T13:38:21+00:00</time>
      </trkpt>
      <trkpt lat="46.77664" lon="-2.02735">
        <ele>6</ele>
        <time>2023-07-01T13:38:22+00:00</time>
      </trkpt>
      <trkpt lat="46.7765" lon="-2.02741">
        <ele>5</ele>
        <time>2023-07-01T13:38:23+00:00</time>
      </trkpt>
      <trkpt lat="46.77623" lon="-2.02765">
        <ele>4</ele>
        <time>2023-07-01T13:38:24+00:00</time>
      </trkpt>
      <trkpt lat="46.77614" lon="-2.0277">
        <ele>4</ele>
        <time>2023-07-01T13:38:25+00:00</time>
      </trkpt>
      <trkpt lat="46.77572" lon="-2.02813">
        <ele>3</ele>
        <time>2023-07-01T13:38:26+00:00</time>
      </trkpt>
      <trkpt lat="46.77532" lon="-2.02843">
        <ele>4</ele>
        <time>2023-07-01T13:38:27+00:00</time>
      </trkpt>
      <trkpt lat="46.77523" lon="-2.02856">
        <ele>4</ele>
        <time>2023-07-01T13:38:28+00:00</time>
      </trkpt>
      <trkpt lat="46.77504" lon="-2.02875">
        <ele>4</ele>
        <time>2023-07-01T13:38:29+00:00</time>
      </trkpt>
      <trkpt lat="46.77497" lon="-2.0289">
        <ele>5</ele>
        <time>2023-07-01T13:38:30+00:00</time>
      </trkpt>
      <trkpt lat="46.775" lon="-2.02924">
        <ele>5</ele>
        <time>2023-07-01T13:38:31+00:00</time>
      </trkpt>
      <trkpt lat="46.77511" lon="-2.02951">
        <ele>5</ele>
        <time>2023-07-01T13:38:32+00:00</time>
      </trkpt>
      <trkpt lat="46.77535" lon="-2.03035">
        <ele>6</ele>
        <time>2023-07-01T13:38:33+00:00</time>
      </trkpt>
      <trkpt lat="46.77544" lon="-2.03118">
        <ele>7</ele>
        <time>2023-07-01T13:38:34+00:00</time>
      </trkpt>
      <trkpt lat="46.77569" lon="-2.0317">
        <ele>8</ele>
        <time>2023-07-01T13:38:35+00:00</time>
      </trkpt>
      <trkpt lat="46.77576" lon="-2.03209">
        <ele>8</ele>
        <time>2023-07-01T13:38:36+00:00</time>
      </trkpt>
      <trkpt lat="46.77635" lon="-2.03288">
        <ele>9</ele>
        <time>2023-07-01T13:38:37+00:00</time>
      </trkpt>
      <trkpt lat="46.77657" lon="-2.03305">
        <ele>9</ele>
        <time>2023-07-01T13:38:38+00:00</time>
      </trkpt>
      <trkpt lat="46.77719" lon="-2.03337">
        <ele>7</ele>
        <time>2023-07-01T13:38:39+00:00</time>
      </trkpt>
      <trkpt lat="46.77806" lon="-2.03404">
        <ele>7</ele>
        <time>2023-07-01T13:38:40+00:00</time>
      </trkpt>
      <trkpt lat="46.77933" lon="-2.03466">
        <ele>7</ele>
        <time>2023-07-01T13:38:41+00:00</time>
      </trkpt>
      <trkpt lat="46.77931" lon="-2.03516">
        <ele>8</ele>
        <time>2023-07-01T13:38:42+00:00</time>
      </trkpt>
      <trkpt lat="46.77921" lon="-2.03547">
        <ele>8</ele>
        <time>2023-07-01T13:38:43+00:00</time>
      </trkpt>
      <trkpt lat="46.77896" lon="-2.03606">
        <ele>9</ele>
        <time>2023-07-01T13:38:44+00:00</time>
      </trkpt>
      <trkpt lat="46.77885" lon="-2.03651">
        <ele>8</ele>
        <time>2023-07-01T13:38:45+00:00</time>
      </trkpt>
      <trkpt lat="46.77881" lon="-2.03681">
        <ele>7</ele>
        <time>2023-07-01T13:38:46+00:00</time>
      </trkpt>
      <trkpt lat="46.77883" lon="-2.03712">
        <ele>6</ele>
        <time>2023-07-01T13:38:47+00:00</time>
      </trkpt>
    </trkseg>
  </trk>
</gpx>